<?xml version="1.0" encoding="UTF-8" standalone="no" ?>
<gpx xmlns="http://www.topografix.com/GPX/1/1" xmlns:xsi="http://www.w3.org/2001/XMLSchema-instance" xsi:schemaLocation="http://www.topografix.com/GPX/1/1 http://www.topografix.com/GPX/1/1/gpx.xsd" version="1.1" creator="VisuGPX - https://www.visugpx.com">
  <metadata>
    <name>LePianGaronne</name>
  </metadata>
  <trk>
    <name><![CDATA[LePianGaronne]]></name>
    <extensions>
      <line xmlns="http://www.topografix.com/GPX/gpx_style/0/2">
        <width>4</width>
      </line>
    </extensions>
    <trkseg>
      <trkpt lat="44.58537" lon="-0.21209">
        <ele>103.4</ele>
        <time>2021-10-16T07:39:00.000Z</time>
      </trkpt>
      <trkpt lat="44.5853" lon="-0.21223">
        <ele>103</ele>
        <time>2021-10-16T07:39:04.000Z</time>
      </trkpt>
      <trkpt lat="44.58539" lon="-0.21228">
        <ele>103.3</ele>
        <time>2021-10-16T07:39:23.000Z</time>
      </trkpt>
      <trkpt lat="44.58547" lon="-0.21231">
        <ele>102.9</ele>
        <time>2021-10-16T07:40:22.000Z</time>
      </trkpt>
      <trkpt lat="44.58548" lon="-0.21244">
        <ele>103</ele>
        <time>2021-10-16T07:42:30.000Z</time>
      </trkpt>
      <trkpt lat="44.58552" lon="-0.21256">
        <ele>102.9</ele>
        <time>2021-10-16T07:42:38.000Z</time>
      </trkpt>
      <trkpt lat="44.58562" lon="-0.21253">
        <ele>103</ele>
        <time>2021-10-16T07:42:46.000Z</time>
      </trkpt>
      <trkpt lat="44.58571" lon="-0.21246">
        <ele>103.3</ele>
        <time>2021-10-16T07:42:52.000Z</time>
      </trkpt>
      <trkpt lat="44.5858" lon="-0.21242">
        <ele>103.9</ele>
        <time>2021-10-16T07:42:59.000Z</time>
      </trkpt>
      <trkpt lat="44.58589" lon="-0.21237">
        <ele>103.8</ele>
        <time>2021-10-16T07:43:07.000Z</time>
      </trkpt>
      <trkpt lat="44.58599" lon="-0.2124">
        <ele>104.4</ele>
        <time>2021-10-16T07:43:21.000Z</time>
      </trkpt>
      <trkpt lat="44.58594" lon="-0.21229">
        <ele>104.4</ele>
        <time>2021-10-16T07:44:55.000Z</time>
      </trkpt>
      <trkpt lat="44.58584" lon="-0.21231">
        <ele>104.4</ele>
        <time>2021-10-16T07:45:01.000Z</time>
      </trkpt>
      <trkpt lat="44.58576" lon="-0.21237">
        <ele>104.1</ele>
        <time>2021-10-16T07:45:06.000Z</time>
      </trkpt>
      <trkpt lat="44.58567" lon="-0.21242">
        <ele>104.1</ele>
        <time>2021-10-16T07:45:14.000Z</time>
      </trkpt>
      <trkpt lat="44.58559" lon="-0.21249">
        <ele>103.5</ele>
        <time>2021-10-16T07:45:21.000Z</time>
      </trkpt>
      <trkpt lat="44.58552" lon="-0.2124">
        <ele>103.1</ele>
        <time>2021-10-16T07:45:40.000Z</time>
      </trkpt>
      <trkpt lat="44.58543" lon="-0.21235">
        <ele>103.5</ele>
        <time>2021-10-16T07:50:13.000Z</time>
      </trkpt>
      <trkpt lat="44.58551" lon="-0.21242">
        <ele>103.5</ele>
        <time>2021-10-16T08:02:38.000Z</time>
      </trkpt>
      <trkpt lat="44.58545" lon="-0.21233">
        <ele>103.2</ele>
        <time>2021-10-16T08:03:48.000Z</time>
      </trkpt>
      <trkpt lat="44.58536" lon="-0.21229">
        <ele>103.2</ele>
        <time>2021-10-16T08:04:43.000Z</time>
      </trkpt>
      <trkpt lat="44.58544" lon="-0.21236">
        <ele>103.2</ele>
        <time>2021-10-16T08:06:19.000Z</time>
      </trkpt>
      <trkpt lat="44.58545" lon="-0.21249">
        <ele>103.3</ele>
        <time>2021-10-16T08:06:30.000Z</time>
      </trkpt>
      <trkpt lat="44.58545" lon="-0.21262">
        <ele>103.2</ele>
        <time>2021-10-16T08:06:38.000Z</time>
      </trkpt>
      <trkpt lat="44.58547" lon="-0.21275">
        <ele>102.7</ele>
        <time>2021-10-16T08:06:50.000Z</time>
      </trkpt>
      <trkpt lat="44.5854" lon="-0.21283">
        <ele>102.8</ele>
        <time>2021-10-16T08:06:59.000Z</time>
      </trkpt>
      <trkpt lat="44.58531" lon="-0.21288">
        <ele>102.1</ele>
        <time>2021-10-16T08:07:09.000Z</time>
      </trkpt>
      <trkpt lat="44.58523" lon="-0.21295">
        <ele>101.8</ele>
        <time>2021-10-16T08:07:18.000Z</time>
      </trkpt>
      <trkpt lat="44.58514" lon="-0.21297">
        <ele>101.3</ele>
        <time>2021-10-16T08:07:25.000Z</time>
      </trkpt>
      <trkpt lat="44.58506" lon="-0.21306">
        <ele>100.9</ele>
        <time>2021-10-16T08:07:36.000Z</time>
      </trkpt>
      <trkpt lat="44.58496" lon="-0.2131">
        <ele>100.2</ele>
        <time>2021-10-16T08:07:46.000Z</time>
      </trkpt>
      <trkpt lat="44.58488" lon="-0.21315">
        <ele>99.9</ele>
        <time>2021-10-16T08:07:52.000Z</time>
      </trkpt>
      <trkpt lat="44.58479" lon="-0.21321">
        <ele>99.3</ele>
        <time>2021-10-16T08:07:59.000Z</time>
      </trkpt>
      <trkpt lat="44.5847" lon="-0.21325">
        <ele>98.8</ele>
        <time>2021-10-16T08:08:09.000Z</time>
      </trkpt>
      <trkpt lat="44.5846" lon="-0.2133">
        <ele>98.1</ele>
        <time>2021-10-16T08:08:18.000Z</time>
      </trkpt>
      <trkpt lat="44.58451" lon="-0.21336">
        <ele>97.7</ele>
        <time>2021-10-16T08:08:35.000Z</time>
      </trkpt>
      <trkpt lat="44.58443" lon="-0.2134">
        <ele>97.3</ele>
        <time>2021-10-16T08:08:43.000Z</time>
      </trkpt>
      <trkpt lat="44.58434" lon="-0.21346">
        <ele>96.7</ele>
        <time>2021-10-16T08:08:51.000Z</time>
      </trkpt>
      <trkpt lat="44.58425" lon="-0.21353">
        <ele>96.2</ele>
        <time>2021-10-16T08:08:59.000Z</time>
      </trkpt>
      <trkpt lat="44.58416" lon="-0.21358">
        <ele>95.6</ele>
        <time>2021-10-16T08:09:06.000Z</time>
      </trkpt>
      <trkpt lat="44.58408" lon="-0.21367">
        <ele>94.8</ele>
        <time>2021-10-16T08:09:14.000Z</time>
      </trkpt>
      <trkpt lat="44.58411" lon="-0.21381">
        <ele>94.8</ele>
        <time>2021-10-16T08:09:22.000Z</time>
      </trkpt>
      <trkpt lat="44.58414" lon="-0.21394">
        <ele>95</ele>
        <time>2021-10-16T08:09:30.000Z</time>
      </trkpt>
      <trkpt lat="44.58415" lon="-0.21408">
        <ele>95.5</ele>
        <time>2021-10-16T08:09:40.000Z</time>
      </trkpt>
      <trkpt lat="44.5841" lon="-0.2142">
        <ele>95.3</ele>
        <time>2021-10-16T08:09:48.000Z</time>
      </trkpt>
      <trkpt lat="44.58405" lon="-0.21431">
        <ele>95</ele>
        <time>2021-10-16T08:09:56.000Z</time>
      </trkpt>
      <trkpt lat="44.584" lon="-0.21443">
        <ele>94.6</ele>
        <time>2021-10-16T08:10:04.000Z</time>
      </trkpt>
      <trkpt lat="44.58395" lon="-0.21455">
        <ele>94.3</ele>
        <time>2021-10-16T08:10:12.000Z</time>
      </trkpt>
      <trkpt lat="44.58391" lon="-0.21466">
        <ele>94.1</ele>
        <time>2021-10-16T08:10:20.000Z</time>
      </trkpt>
      <trkpt lat="44.58386" lon="-0.21479">
        <ele>94.1</ele>
        <time>2021-10-16T08:10:28.000Z</time>
      </trkpt>
      <trkpt lat="44.58382" lon="-0.21491">
        <ele>93.9</ele>
        <time>2021-10-16T08:10:36.000Z</time>
      </trkpt>
      <trkpt lat="44.58377" lon="-0.21503">
        <ele>93.7</ele>
        <time>2021-10-16T08:10:44.000Z</time>
      </trkpt>
      <trkpt lat="44.58373" lon="-0.21514">
        <ele>93.6</ele>
        <time>2021-10-16T08:10:53.000Z</time>
      </trkpt>
      <trkpt lat="44.58368" lon="-0.21526">
        <ele>93.6</ele>
        <time>2021-10-16T08:11:01.000Z</time>
      </trkpt>
      <trkpt lat="44.58363" lon="-0.21538">
        <ele>93.6</ele>
        <time>2021-10-16T08:11:10.000Z</time>
      </trkpt>
      <trkpt lat="44.58357" lon="-0.2155">
        <ele>93.4</ele>
        <time>2021-10-16T08:11:19.000Z</time>
      </trkpt>
      <trkpt lat="44.58352" lon="-0.21561">
        <ele>93.4</ele>
        <time>2021-10-16T08:11:27.000Z</time>
      </trkpt>
      <trkpt lat="44.58346" lon="-0.2157">
        <ele>93.6</ele>
        <time>2021-10-16T08:11:35.000Z</time>
      </trkpt>
      <trkpt lat="44.58339" lon="-0.21581">
        <ele>93.7</ele>
        <time>2021-10-16T08:11:44.000Z</time>
      </trkpt>
      <trkpt lat="44.58333" lon="-0.21591">
        <ele>93.7</ele>
        <time>2021-10-16T08:11:53.000Z</time>
      </trkpt>
      <trkpt lat="44.58328" lon="-0.21601">
        <ele>93.7</ele>
        <time>2021-10-16T08:12:01.000Z</time>
      </trkpt>
      <trkpt lat="44.58321" lon="-0.21611">
        <ele>93.8</ele>
        <time>2021-10-16T08:12:09.000Z</time>
      </trkpt>
      <trkpt lat="44.58315" lon="-0.21621">
        <ele>93.6</ele>
        <time>2021-10-16T08:12:17.000Z</time>
      </trkpt>
      <trkpt lat="44.58309" lon="-0.2163">
        <ele>93.6</ele>
        <time>2021-10-16T08:12:25.000Z</time>
      </trkpt>
      <trkpt lat="44.58303" lon="-0.21641">
        <ele>93.5</ele>
        <time>2021-10-16T08:12:34.000Z</time>
      </trkpt>
      <trkpt lat="44.58298" lon="-0.21651">
        <ele>93.5</ele>
        <time>2021-10-16T08:12:42.000Z</time>
      </trkpt>
      <trkpt lat="44.58292" lon="-0.21662">
        <ele>93.4</ele>
        <time>2021-10-16T08:12:50.000Z</time>
      </trkpt>
      <trkpt lat="44.58286" lon="-0.21673">
        <ele>93.4</ele>
        <time>2021-10-16T08:12:59.000Z</time>
      </trkpt>
      <trkpt lat="44.5828" lon="-0.21684">
        <ele>93.2</ele>
        <time>2021-10-16T08:13:08.000Z</time>
      </trkpt>
      <trkpt lat="44.58274" lon="-0.21694">
        <ele>93.4</ele>
        <time>2021-10-16T08:13:16.000Z</time>
      </trkpt>
      <trkpt lat="44.58268" lon="-0.21704">
        <ele>93.5</ele>
        <time>2021-10-16T08:13:25.000Z</time>
      </trkpt>
      <trkpt lat="44.58261" lon="-0.21715">
        <ele>93.5</ele>
        <time>2021-10-16T08:13:34.000Z</time>
      </trkpt>
      <trkpt lat="44.58255" lon="-0.21725">
        <ele>93.8</ele>
        <time>2021-10-16T08:13:42.000Z</time>
      </trkpt>
      <trkpt lat="44.58249" lon="-0.21735">
        <ele>94.1</ele>
        <time>2021-10-16T08:13:51.000Z</time>
      </trkpt>
      <trkpt lat="44.58243" lon="-0.21745">
        <ele>94.1</ele>
        <time>2021-10-16T08:13:59.000Z</time>
      </trkpt>
      <trkpt lat="44.58237" lon="-0.21756">
        <ele>94.3</ele>
        <time>2021-10-16T08:14:08.000Z</time>
      </trkpt>
      <trkpt lat="44.58231" lon="-0.21767">
        <ele>94.4</ele>
        <time>2021-10-16T08:14:17.000Z</time>
      </trkpt>
      <trkpt lat="44.58226" lon="-0.21778">
        <ele>94.7</ele>
        <time>2021-10-16T08:14:25.000Z</time>
      </trkpt>
      <trkpt lat="44.58223" lon="-0.2179">
        <ele>95.2</ele>
        <time>2021-10-16T08:14:33.000Z</time>
      </trkpt>
      <trkpt lat="44.58222" lon="-0.21804">
        <ele>95.7</ele>
        <time>2021-10-16T08:14:41.000Z</time>
      </trkpt>
      <trkpt lat="44.5822" lon="-0.21817">
        <ele>96.2</ele>
        <time>2021-10-16T08:14:49.000Z</time>
      </trkpt>
      <trkpt lat="44.58218" lon="-0.21829">
        <ele>96.7</ele>
        <time>2021-10-16T08:14:58.000Z</time>
      </trkpt>
      <trkpt lat="44.58213" lon="-0.2184">
        <ele>97</ele>
        <time>2021-10-16T08:15:06.000Z</time>
      </trkpt>
      <trkpt lat="44.58207" lon="-0.21852">
        <ele>97.5</ele>
        <time>2021-10-16T08:15:16.000Z</time>
      </trkpt>
      <trkpt lat="44.582" lon="-0.21862">
        <ele>98.4</ele>
        <time>2021-10-16T08:15:26.000Z</time>
      </trkpt>
      <trkpt lat="44.58194" lon="-0.21872">
        <ele>99.1</ele>
        <time>2021-10-16T08:15:39.000Z</time>
      </trkpt>
      <trkpt lat="44.58189" lon="-0.21884">
        <ele>99.7</ele>
        <time>2021-10-16T08:15:50.000Z</time>
      </trkpt>
      <trkpt lat="44.58184" lon="-0.21896">
        <ele>100.2</ele>
        <time>2021-10-16T08:16:00.000Z</time>
      </trkpt>
      <trkpt lat="44.58179" lon="-0.21907">
        <ele>101</ele>
        <time>2021-10-16T08:16:10.000Z</time>
      </trkpt>
      <trkpt lat="44.5817" lon="-0.21906">
        <ele>101.6</ele>
        <time>2021-10-16T08:16:20.000Z</time>
      </trkpt>
      <trkpt lat="44.58161" lon="-0.219">
        <ele>102.3</ele>
        <time>2021-10-16T08:16:29.000Z</time>
      </trkpt>
      <trkpt lat="44.58152" lon="-0.21895">
        <ele>102.4</ele>
        <time>2021-10-16T08:16:38.000Z</time>
      </trkpt>
      <trkpt lat="44.58143" lon="-0.21889">
        <ele>102.6</ele>
        <time>2021-10-16T08:16:48.000Z</time>
      </trkpt>
      <trkpt lat="44.58134" lon="-0.21883">
        <ele>102.6</ele>
        <time>2021-10-16T08:16:58.000Z</time>
      </trkpt>
      <trkpt lat="44.58125" lon="-0.21877">
        <ele>102.5</ele>
        <time>2021-10-16T08:17:07.000Z</time>
      </trkpt>
      <trkpt lat="44.58117" lon="-0.21871">
        <ele>102.3</ele>
        <time>2021-10-16T08:17:15.000Z</time>
      </trkpt>
      <trkpt lat="44.58109" lon="-0.21866">
        <ele>102.1</ele>
        <time>2021-10-16T08:17:24.000Z</time>
      </trkpt>
      <trkpt lat="44.581" lon="-0.21861">
        <ele>101.6</ele>
        <time>2021-10-16T08:17:32.000Z</time>
      </trkpt>
      <trkpt lat="44.58091" lon="-0.21857">
        <ele>101.2</ele>
        <time>2021-10-16T08:17:40.000Z</time>
      </trkpt>
      <trkpt lat="44.58081" lon="-0.21858">
        <ele>100.2</ele>
        <time>2021-10-16T08:17:51.000Z</time>
      </trkpt>
      <trkpt lat="44.58084" lon="-0.2187">
        <ele>99.7</ele>
        <time>2021-10-16T08:19:46.000Z</time>
      </trkpt>
      <trkpt lat="44.58085" lon="-0.21884">
        <ele>100.5</ele>
        <time>2021-10-16T08:19:55.000Z</time>
      </trkpt>
      <trkpt lat="44.58086" lon="-0.21897">
        <ele>100.5</ele>
        <time>2021-10-16T08:20:06.000Z</time>
      </trkpt>
      <trkpt lat="44.5809" lon="-0.21909">
        <ele>100.5</ele>
        <time>2021-10-16T08:20:15.000Z</time>
      </trkpt>
      <trkpt lat="44.58092" lon="-0.21922">
        <ele>100.4</ele>
        <time>2021-10-16T08:20:25.000Z</time>
      </trkpt>
      <trkpt lat="44.58094" lon="-0.21935">
        <ele>100.3</ele>
        <time>2021-10-16T08:20:35.000Z</time>
      </trkpt>
      <trkpt lat="44.58097" lon="-0.21948">
        <ele>100.2</ele>
        <time>2021-10-16T08:20:46.000Z</time>
      </trkpt>
      <trkpt lat="44.58098" lon="-0.21962">
        <ele>99.8</ele>
        <time>2021-10-16T08:20:54.000Z</time>
      </trkpt>
      <trkpt lat="44.58101" lon="-0.21974">
        <ele>99.4</ele>
        <time>2021-10-16T08:21:06.000Z</time>
      </trkpt>
      <trkpt lat="44.58105" lon="-0.21986">
        <ele>99.3</ele>
        <time>2021-10-16T08:21:15.000Z</time>
      </trkpt>
      <trkpt lat="44.58111" lon="-0.21996">
        <ele>99.2</ele>
        <time>2021-10-16T08:21:26.000Z</time>
      </trkpt>
      <trkpt lat="44.58115" lon="-0.22008">
        <ele>99.1</ele>
        <time>2021-10-16T08:21:34.000Z</time>
      </trkpt>
      <trkpt lat="44.58117" lon="-0.22022">
        <ele>98.6</ele>
        <time>2021-10-16T08:21:43.000Z</time>
      </trkpt>
      <trkpt lat="44.58119" lon="-0.22036">
        <ele>97.9</ele>
        <time>2021-10-16T08:21:52.000Z</time>
      </trkpt>
      <trkpt lat="44.58122" lon="-0.22048">
        <ele>97.5</ele>
        <time>2021-10-16T08:22:02.000Z</time>
      </trkpt>
      <trkpt lat="44.58129" lon="-0.22057">
        <ele>97.6</ele>
        <time>2021-10-16T08:22:12.000Z</time>
      </trkpt>
      <trkpt lat="44.58139" lon="-0.22057">
        <ele>98</ele>
        <time>2021-10-16T08:22:22.000Z</time>
      </trkpt>
      <trkpt lat="44.58148" lon="-0.22058">
        <ele>98.2</ele>
        <time>2021-10-16T08:22:32.000Z</time>
      </trkpt>
      <trkpt lat="44.58147" lon="-0.22071">
        <ele>98.6</ele>
        <time>2021-10-16T08:22:53.000Z</time>
      </trkpt>
      <trkpt lat="44.58147" lon="-0.22084">
        <ele>98.5</ele>
        <time>2021-10-16T08:23:04.000Z</time>
      </trkpt>
      <trkpt lat="44.58146" lon="-0.22097">
        <ele>98.2</ele>
        <time>2021-10-16T08:23:13.000Z</time>
      </trkpt>
      <trkpt lat="44.58145" lon="-0.2211">
        <ele>98.3</ele>
        <time>2021-10-16T08:23:23.000Z</time>
      </trkpt>
      <trkpt lat="44.58146" lon="-0.22124">
        <ele>98.4</ele>
        <time>2021-10-16T08:24:34.000Z</time>
      </trkpt>
      <trkpt lat="44.58146" lon="-0.22138">
        <ele>98.8</ele>
        <time>2021-10-16T08:24:45.000Z</time>
      </trkpt>
      <trkpt lat="44.58146" lon="-0.22151">
        <ele>98.8</ele>
        <time>2021-10-16T08:24:55.000Z</time>
      </trkpt>
      <trkpt lat="44.58145" lon="-0.22164">
        <ele>99</ele>
        <time>2021-10-16T08:25:04.000Z</time>
      </trkpt>
      <trkpt lat="44.58146" lon="-0.22177">
        <ele>98.9</ele>
        <time>2021-10-16T08:25:14.000Z</time>
      </trkpt>
      <trkpt lat="44.58146" lon="-0.22191">
        <ele>99</ele>
        <time>2021-10-16T08:25:24.000Z</time>
      </trkpt>
      <trkpt lat="44.58148" lon="-0.22204">
        <ele>99</ele>
        <time>2021-10-16T08:25:34.000Z</time>
      </trkpt>
      <trkpt lat="44.58149" lon="-0.22217">
        <ele>99.2</ele>
        <time>2021-10-16T08:25:43.000Z</time>
      </trkpt>
      <trkpt lat="44.5815" lon="-0.2223">
        <ele>99.3</ele>
        <time>2021-10-16T08:25:52.000Z</time>
      </trkpt>
      <trkpt lat="44.58152" lon="-0.22243">
        <ele>99.4</ele>
        <time>2021-10-16T08:26:02.000Z</time>
      </trkpt>
      <trkpt lat="44.58153" lon="-0.22257">
        <ele>99.6</ele>
        <time>2021-10-16T08:26:12.000Z</time>
      </trkpt>
      <trkpt lat="44.58154" lon="-0.2227">
        <ele>99.5</ele>
        <time>2021-10-16T08:26:21.000Z</time>
      </trkpt>
      <trkpt lat="44.58155" lon="-0.22282">
        <ele>99.6</ele>
        <time>2021-10-16T08:26:30.000Z</time>
      </trkpt>
      <trkpt lat="44.58154" lon="-0.22295">
        <ele>99.6</ele>
        <time>2021-10-16T08:26:38.000Z</time>
      </trkpt>
      <trkpt lat="44.58155" lon="-0.22309">
        <ele>99.3</ele>
        <time>2021-10-16T08:26:47.000Z</time>
      </trkpt>
      <trkpt lat="44.58155" lon="-0.22322">
        <ele>99.2</ele>
        <time>2021-10-16T08:26:56.000Z</time>
      </trkpt>
      <trkpt lat="44.58155" lon="-0.22336">
        <ele>99.3</ele>
        <time>2021-10-16T08:27:05.000Z</time>
      </trkpt>
      <trkpt lat="44.58154" lon="-0.22349">
        <ele>99.4</ele>
        <time>2021-10-16T08:27:15.000Z</time>
      </trkpt>
      <trkpt lat="44.58153" lon="-0.22362">
        <ele>99.6</ele>
        <time>2021-10-16T08:27:24.000Z</time>
      </trkpt>
      <trkpt lat="44.58153" lon="-0.22376">
        <ele>99.6</ele>
        <time>2021-10-16T08:27:33.000Z</time>
      </trkpt>
      <trkpt lat="44.58151" lon="-0.22389">
        <ele>99.5</ele>
        <time>2021-10-16T08:27:42.000Z</time>
      </trkpt>
      <trkpt lat="44.5815" lon="-0.22402">
        <ele>99.5</ele>
        <time>2021-10-16T08:27:52.000Z</time>
      </trkpt>
      <trkpt lat="44.58149" lon="-0.22415">
        <ele>99.4</ele>
        <time>2021-10-16T08:28:02.000Z</time>
      </trkpt>
      <trkpt lat="44.5815" lon="-0.22429">
        <ele>99.3</ele>
        <time>2021-10-16T08:28:13.000Z</time>
      </trkpt>
      <trkpt lat="44.58154" lon="-0.22441">
        <ele>99.6</ele>
        <time>2021-10-16T08:28:22.000Z</time>
      </trkpt>
      <trkpt lat="44.58163" lon="-0.22447">
        <ele>99.5</ele>
        <time>2021-10-16T08:28:31.000Z</time>
      </trkpt>
      <trkpt lat="44.58171" lon="-0.22452">
        <ele>99.4</ele>
        <time>2021-10-16T08:28:40.000Z</time>
      </trkpt>
      <trkpt lat="44.58178" lon="-0.22461">
        <ele>98.9</ele>
        <time>2021-10-16T08:28:49.000Z</time>
      </trkpt>
      <trkpt lat="44.58177" lon="-0.22474">
        <ele>98.5</ele>
        <time>2021-10-16T08:28:59.000Z</time>
      </trkpt>
      <trkpt lat="44.58176" lon="-0.22488">
        <ele>98.5</ele>
        <time>2021-10-16T08:29:28.000Z</time>
      </trkpt>
      <trkpt lat="44.58172" lon="-0.225">
        <ele>98.7</ele>
        <time>2021-10-16T08:29:40.000Z</time>
      </trkpt>
      <trkpt lat="44.58167" lon="-0.22512">
        <ele>99</ele>
        <time>2021-10-16T08:29:50.000Z</time>
      </trkpt>
      <trkpt lat="44.58162" lon="-0.22524">
        <ele>98.8</ele>
        <time>2021-10-16T08:30:01.000Z</time>
      </trkpt>
      <trkpt lat="44.58158" lon="-0.22536">
        <ele>98.8</ele>
        <time>2021-10-16T08:30:11.000Z</time>
      </trkpt>
      <trkpt lat="44.58152" lon="-0.22547">
        <ele>98.9</ele>
        <time>2021-10-16T08:30:21.000Z</time>
      </trkpt>
      <trkpt lat="44.58149" lon="-0.2256">
        <ele>99.2</ele>
        <time>2021-10-16T08:30:30.000Z</time>
      </trkpt>
      <trkpt lat="44.58145" lon="-0.22572">
        <ele>99</ele>
        <time>2021-10-16T08:30:39.000Z</time>
      </trkpt>
      <trkpt lat="44.58143" lon="-0.22585">
        <ele>99.1</ele>
        <time>2021-10-16T08:30:48.000Z</time>
      </trkpt>
      <trkpt lat="44.58142" lon="-0.22597">
        <ele>99.3</ele>
        <time>2021-10-16T08:30:56.000Z</time>
      </trkpt>
      <trkpt lat="44.58141" lon="-0.22611">
        <ele>99.3</ele>
        <time>2021-10-16T08:31:06.000Z</time>
      </trkpt>
      <trkpt lat="44.5814" lon="-0.22624">
        <ele>99.3</ele>
        <time>2021-10-16T08:31:16.000Z</time>
      </trkpt>
      <trkpt lat="44.5814" lon="-0.22638">
        <ele>98.9</ele>
        <time>2021-10-16T08:31:25.000Z</time>
      </trkpt>
      <trkpt lat="44.5814" lon="-0.22651">
        <ele>98.9</ele>
        <time>2021-10-16T08:31:34.000Z</time>
      </trkpt>
      <trkpt lat="44.5814" lon="-0.22664">
        <ele>98.9</ele>
        <time>2021-10-16T08:31:43.000Z</time>
      </trkpt>
      <trkpt lat="44.58139" lon="-0.22678">
        <ele>98.7</ele>
        <time>2021-10-16T08:31:51.000Z</time>
      </trkpt>
      <trkpt lat="44.58138" lon="-0.2269">
        <ele>98.7</ele>
        <time>2021-10-16T08:32:00.000Z</time>
      </trkpt>
      <trkpt lat="44.58135" lon="-0.22703">
        <ele>98.5</ele>
        <time>2021-10-16T08:32:08.000Z</time>
      </trkpt>
      <trkpt lat="44.58133" lon="-0.22716">
        <ele>98.5</ele>
        <time>2021-10-16T08:32:16.000Z</time>
      </trkpt>
      <trkpt lat="44.58131" lon="-0.22729">
        <ele>98.4</ele>
        <time>2021-10-16T08:32:23.000Z</time>
      </trkpt>
      <trkpt lat="44.58127" lon="-0.22742">
        <ele>98.2</ele>
        <time>2021-10-16T08:32:32.000Z</time>
      </trkpt>
      <trkpt lat="44.58126" lon="-0.22755">
        <ele>98.6</ele>
        <time>2021-10-16T08:32:41.000Z</time>
      </trkpt>
      <trkpt lat="44.58124" lon="-0.22769">
        <ele>98.9</ele>
        <time>2021-10-16T08:32:51.000Z</time>
      </trkpt>
      <trkpt lat="44.58128" lon="-0.22781">
        <ele>98.9</ele>
        <time>2021-10-16T08:32:59.000Z</time>
      </trkpt>
      <trkpt lat="44.5813" lon="-0.22794">
        <ele>99.1</ele>
        <time>2021-10-16T08:33:08.000Z</time>
      </trkpt>
      <trkpt lat="44.58134" lon="-0.22807">
        <ele>99.2</ele>
        <time>2021-10-16T08:33:17.000Z</time>
      </trkpt>
      <trkpt lat="44.5814" lon="-0.22818">
        <ele>99.1</ele>
        <time>2021-10-16T08:33:25.000Z</time>
      </trkpt>
      <trkpt lat="44.58147" lon="-0.22828">
        <ele>99</ele>
        <time>2021-10-16T08:33:33.000Z</time>
      </trkpt>
      <trkpt lat="44.58154" lon="-0.22838">
        <ele>98.6</ele>
        <time>2021-10-16T08:33:43.000Z</time>
      </trkpt>
      <trkpt lat="44.58161" lon="-0.22848">
        <ele>98.3</ele>
        <time>2021-10-16T08:33:51.000Z</time>
      </trkpt>
      <trkpt lat="44.58168" lon="-0.22856">
        <ele>97.9</ele>
        <time>2021-10-16T08:33:59.000Z</time>
      </trkpt>
      <trkpt lat="44.58174" lon="-0.22866">
        <ele>97.7</ele>
        <time>2021-10-16T08:34:08.000Z</time>
      </trkpt>
      <trkpt lat="44.58178" lon="-0.22878">
        <ele>97.5</ele>
        <time>2021-10-16T08:34:17.000Z</time>
      </trkpt>
      <trkpt lat="44.58183" lon="-0.22891">
        <ele>97.3</ele>
        <time>2021-10-16T08:34:27.000Z</time>
      </trkpt>
      <trkpt lat="44.58188" lon="-0.22901">
        <ele>97.2</ele>
        <time>2021-10-16T08:34:36.000Z</time>
      </trkpt>
      <trkpt lat="44.58197" lon="-0.22906">
        <ele>96.5</ele>
        <time>2021-10-16T08:36:15.000Z</time>
      </trkpt>
      <trkpt lat="44.58204" lon="-0.22916">
        <ele>96.3</ele>
        <time>2021-10-16T08:36:25.000Z</time>
      </trkpt>
      <trkpt lat="44.58208" lon="-0.22928">
        <ele>96.1</ele>
        <time>2021-10-16T08:36:35.000Z</time>
      </trkpt>
      <trkpt lat="44.58214" lon="-0.22938">
        <ele>95.8</ele>
        <time>2021-10-16T08:36:44.000Z</time>
      </trkpt>
      <trkpt lat="44.5822" lon="-0.22949">
        <ele>95.3</ele>
        <time>2021-10-16T08:36:53.000Z</time>
      </trkpt>
      <trkpt lat="44.58224" lon="-0.2296">
        <ele>94.9</ele>
        <time>2021-10-16T08:37:03.000Z</time>
      </trkpt>
      <trkpt lat="44.58227" lon="-0.22972">
        <ele>93.9</ele>
        <time>2021-10-16T08:37:14.000Z</time>
      </trkpt>
      <trkpt lat="44.5823" lon="-0.22986">
        <ele>93.4</ele>
        <time>2021-10-16T08:37:24.000Z</time>
      </trkpt>
      <trkpt lat="44.58231" lon="-0.22999">
        <ele>92.9</ele>
        <time>2021-10-16T08:37:32.000Z</time>
      </trkpt>
      <trkpt lat="44.58229" lon="-0.23012">
        <ele>92.5</ele>
        <time>2021-10-16T08:37:40.000Z</time>
      </trkpt>
      <trkpt lat="44.58239" lon="-0.23012">
        <ele>91.1</ele>
        <time>2021-10-16T08:37:57.000Z</time>
      </trkpt>
      <trkpt lat="44.58246" lon="-0.23004">
        <ele>89.7</ele>
        <time>2021-10-16T08:38:08.000Z</time>
      </trkpt>
      <trkpt lat="44.58253" lon="-0.22995">
        <ele>88</ele>
        <time>2021-10-16T08:38:19.000Z</time>
      </trkpt>
      <trkpt lat="44.58259" lon="-0.22985">
        <ele>86.4</ele>
        <time>2021-10-16T08:38:29.000Z</time>
      </trkpt>
      <trkpt lat="44.58264" lon="-0.22973">
        <ele>85</ele>
        <time>2021-10-16T08:38:40.000Z</time>
      </trkpt>
      <trkpt lat="44.5827" lon="-0.22963">
        <ele>83.8</ele>
        <time>2021-10-16T08:38:50.000Z</time>
      </trkpt>
      <trkpt lat="44.58276" lon="-0.22952">
        <ele>82.7</ele>
        <time>2021-10-16T08:39:01.000Z</time>
      </trkpt>
      <trkpt lat="44.58281" lon="-0.22941">
        <ele>82</ele>
        <time>2021-10-16T08:39:12.000Z</time>
      </trkpt>
      <trkpt lat="44.58287" lon="-0.22931">
        <ele>81</ele>
        <time>2021-10-16T08:39:22.000Z</time>
      </trkpt>
      <trkpt lat="44.58296" lon="-0.22923">
        <ele>80.3</ele>
        <time>2021-10-16T08:39:31.000Z</time>
      </trkpt>
      <trkpt lat="44.58303" lon="-0.22914">
        <ele>79.2</ele>
        <time>2021-10-16T08:39:40.000Z</time>
      </trkpt>
      <trkpt lat="44.58308" lon="-0.22904">
        <ele>78.5</ele>
        <time>2021-10-16T08:39:48.000Z</time>
      </trkpt>
      <trkpt lat="44.58313" lon="-0.22893">
        <ele>77.3</ele>
        <time>2021-10-16T08:39:57.000Z</time>
      </trkpt>
      <trkpt lat="44.58313" lon="-0.2288">
        <ele>76</ele>
        <time>2021-10-16T08:40:08.000Z</time>
      </trkpt>
      <trkpt lat="44.58314" lon="-0.22866">
        <ele>75.3</ele>
        <time>2021-10-16T08:40:20.000Z</time>
      </trkpt>
      <trkpt lat="44.58313" lon="-0.22853">
        <ele>74.7</ele>
        <time>2021-10-16T08:40:29.000Z</time>
      </trkpt>
      <trkpt lat="44.58312" lon="-0.22839">
        <ele>73.5</ele>
        <time>2021-10-16T08:40:40.000Z</time>
      </trkpt>
      <trkpt lat="44.58309" lon="-0.22827">
        <ele>72.6</ele>
        <time>2021-10-16T08:40:49.000Z</time>
      </trkpt>
      <trkpt lat="44.58305" lon="-0.22814">
        <ele>71.6</ele>
        <time>2021-10-16T08:40:59.000Z</time>
      </trkpt>
      <trkpt lat="44.58301" lon="-0.22802">
        <ele>71.1</ele>
        <time>2021-10-16T08:41:08.000Z</time>
      </trkpt>
      <trkpt lat="44.58297" lon="-0.22791">
        <ele>70.2</ele>
        <time>2021-10-16T08:41:18.000Z</time>
      </trkpt>
      <trkpt lat="44.58294" lon="-0.22778">
        <ele>69.2</ele>
        <time>2021-10-16T08:41:27.000Z</time>
      </trkpt>
      <trkpt lat="44.58292" lon="-0.22764">
        <ele>68.4</ele>
        <time>2021-10-16T08:41:37.000Z</time>
      </trkpt>
      <trkpt lat="44.58289" lon="-0.22751">
        <ele>68.1</ele>
        <time>2021-10-16T08:41:47.000Z</time>
      </trkpt>
      <trkpt lat="44.58287" lon="-0.22739">
        <ele>67.7</ele>
        <time>2021-10-16T08:41:57.000Z</time>
      </trkpt>
      <trkpt lat="44.58284" lon="-0.22727">
        <ele>67.7</ele>
        <time>2021-10-16T08:42:07.000Z</time>
      </trkpt>
      <trkpt lat="44.58281" lon="-0.22714">
        <ele>67.4</ele>
        <time>2021-10-16T08:42:16.000Z</time>
      </trkpt>
      <trkpt lat="44.58277" lon="-0.22703">
        <ele>67.4</ele>
        <time>2021-10-16T08:42:25.000Z</time>
      </trkpt>
      <trkpt lat="44.58276" lon="-0.2269">
        <ele>67.2</ele>
        <time>2021-10-16T08:42:34.000Z</time>
      </trkpt>
      <trkpt lat="44.58276" lon="-0.22676">
        <ele>67.2</ele>
        <time>2021-10-16T08:42:45.000Z</time>
      </trkpt>
      <trkpt lat="44.58275" lon="-0.22662">
        <ele>67.4</ele>
        <time>2021-10-16T08:42:55.000Z</time>
      </trkpt>
      <trkpt lat="44.58277" lon="-0.2265">
        <ele>67.7</ele>
        <time>2021-10-16T08:43:06.000Z</time>
      </trkpt>
      <trkpt lat="44.58283" lon="-0.22639">
        <ele>68</ele>
        <time>2021-10-16T08:43:15.000Z</time>
      </trkpt>
      <trkpt lat="44.58289" lon="-0.22629">
        <ele>68.3</ele>
        <time>2021-10-16T08:43:24.000Z</time>
      </trkpt>
      <trkpt lat="44.58293" lon="-0.22617">
        <ele>68.3</ele>
        <time>2021-10-16T08:43:33.000Z</time>
      </trkpt>
      <trkpt lat="44.58298" lon="-0.22606">
        <ele>68.9</ele>
        <time>2021-10-16T08:43:43.000Z</time>
      </trkpt>
      <trkpt lat="44.58303" lon="-0.22595">
        <ele>68.8</ele>
        <time>2021-10-16T08:43:52.000Z</time>
      </trkpt>
      <trkpt lat="44.58307" lon="-0.22583">
        <ele>69.1</ele>
        <time>2021-10-16T08:44:02.000Z</time>
      </trkpt>
      <trkpt lat="44.58311" lon="-0.22571">
        <ele>69.3</ele>
        <time>2021-10-16T08:44:12.000Z</time>
      </trkpt>
      <trkpt lat="44.58316" lon="-0.2256">
        <ele>69.3</ele>
        <time>2021-10-16T08:44:20.000Z</time>
      </trkpt>
      <trkpt lat="44.58321" lon="-0.22548">
        <ele>68.9</ele>
        <time>2021-10-16T08:44:29.000Z</time>
      </trkpt>
      <trkpt lat="44.58326" lon="-0.22536">
        <ele>68.3</ele>
        <time>2021-10-16T08:44:38.000Z</time>
      </trkpt>
      <trkpt lat="44.58331" lon="-0.22524">
        <ele>67.7</ele>
        <time>2021-10-16T08:44:48.000Z</time>
      </trkpt>
      <trkpt lat="44.58335" lon="-0.22512">
        <ele>67.1</ele>
        <time>2021-10-16T08:44:59.000Z</time>
      </trkpt>
      <trkpt lat="44.58337" lon="-0.225">
        <ele>66.8</ele>
        <time>2021-10-16T08:45:32.000Z</time>
      </trkpt>
      <trkpt lat="44.58342" lon="-0.22489">
        <ele>66.4</ele>
        <time>2021-10-16T08:45:40.000Z</time>
      </trkpt>
      <trkpt lat="44.58347" lon="-0.22478">
        <ele>65.9</ele>
        <time>2021-10-16T08:45:50.000Z</time>
      </trkpt>
      <trkpt lat="44.58351" lon="-0.22467">
        <ele>65.7</ele>
        <time>2021-10-16T08:46:00.000Z</time>
      </trkpt>
      <trkpt lat="44.58357" lon="-0.22457">
        <ele>65.9</ele>
        <time>2021-10-16T08:46:09.000Z</time>
      </trkpt>
      <trkpt lat="44.58362" lon="-0.22446">
        <ele>65.8</ele>
        <time>2021-10-16T08:46:19.000Z</time>
      </trkpt>
      <trkpt lat="44.58368" lon="-0.22435">
        <ele>66.1</ele>
        <time>2021-10-16T08:46:31.000Z</time>
      </trkpt>
      <trkpt lat="44.58373" lon="-0.22423">
        <ele>66.1</ele>
        <time>2021-10-16T08:46:41.000Z</time>
      </trkpt>
      <trkpt lat="44.58377" lon="-0.22411">
        <ele>66.4</ele>
        <time>2021-10-16T08:46:50.000Z</time>
      </trkpt>
      <trkpt lat="44.58383" lon="-0.224">
        <ele>66.8</ele>
        <time>2021-10-16T08:46:57.000Z</time>
      </trkpt>
      <trkpt lat="44.58388" lon="-0.22388">
        <ele>67.2</ele>
        <time>2021-10-16T08:47:06.000Z</time>
      </trkpt>
      <trkpt lat="44.58392" lon="-0.22377">
        <ele>67.7</ele>
        <time>2021-10-16T08:47:16.000Z</time>
      </trkpt>
      <trkpt lat="44.58397" lon="-0.22365">
        <ele>68.1</ele>
        <time>2021-10-16T08:47:25.000Z</time>
      </trkpt>
      <trkpt lat="44.584" lon="-0.22353">
        <ele>68.7</ele>
        <time>2021-10-16T08:47:35.000Z</time>
      </trkpt>
      <trkpt lat="44.58403" lon="-0.2234">
        <ele>69.4</ele>
        <time>2021-10-16T08:47:45.000Z</time>
      </trkpt>
      <trkpt lat="44.58406" lon="-0.22328">
        <ele>70.4</ele>
        <time>2021-10-16T08:47:55.000Z</time>
      </trkpt>
      <trkpt lat="44.5841" lon="-0.22317">
        <ele>71</ele>
        <time>2021-10-16T08:48:04.000Z</time>
      </trkpt>
      <trkpt lat="44.58415" lon="-0.22306">
        <ele>71.5</ele>
        <time>2021-10-16T08:48:44.000Z</time>
      </trkpt>
      <trkpt lat="44.58417" lon="-0.22293">
        <ele>71.4</ele>
        <time>2021-10-16T08:48:56.000Z</time>
      </trkpt>
      <trkpt lat="44.58424" lon="-0.22285">
        <ele>71.2</ele>
        <time>2021-10-16T08:49:22.000Z</time>
      </trkpt>
      <trkpt lat="44.58421" lon="-0.22274">
        <ele>71.3</ele>
        <time>2021-10-16T08:50:52.000Z</time>
      </trkpt>
      <trkpt lat="44.58422" lon="-0.22261">
        <ele>71.3</ele>
        <time>2021-10-16T08:51:07.000Z</time>
      </trkpt>
      <trkpt lat="44.58423" lon="-0.22247">
        <ele>70.9</ele>
        <time>2021-10-16T08:51:15.000Z</time>
      </trkpt>
      <trkpt lat="44.58423" lon="-0.22233">
        <ele>70.4</ele>
        <time>2021-10-16T08:51:25.000Z</time>
      </trkpt>
      <trkpt lat="44.58425" lon="-0.2222">
        <ele>70.3</ele>
        <time>2021-10-16T08:51:32.000Z</time>
      </trkpt>
      <trkpt lat="44.58425" lon="-0.22207">
        <ele>70.1</ele>
        <time>2021-10-16T08:51:39.000Z</time>
      </trkpt>
      <trkpt lat="44.58425" lon="-0.22194">
        <ele>69.9</ele>
        <time>2021-10-16T08:51:46.000Z</time>
      </trkpt>
      <trkpt lat="44.58424" lon="-0.2218">
        <ele>69.9</ele>
        <time>2021-10-16T08:51:54.000Z</time>
      </trkpt>
      <trkpt lat="44.58422" lon="-0.22167">
        <ele>69.3</ele>
        <time>2021-10-16T08:52:01.000Z</time>
      </trkpt>
      <trkpt lat="44.58418" lon="-0.22155">
        <ele>68.7</ele>
        <time>2021-10-16T08:52:08.000Z</time>
      </trkpt>
      <trkpt lat="44.58416" lon="-0.22142">
        <ele>68</ele>
        <time>2021-10-16T08:52:16.000Z</time>
      </trkpt>
      <trkpt lat="44.58413" lon="-0.22129">
        <ele>67.4</ele>
        <time>2021-10-16T08:52:23.000Z</time>
      </trkpt>
      <trkpt lat="44.58409" lon="-0.22117">
        <ele>66.5</ele>
        <time>2021-10-16T08:52:31.000Z</time>
      </trkpt>
      <trkpt lat="44.58404" lon="-0.22105">
        <ele>65.6</ele>
        <time>2021-10-16T08:52:39.000Z</time>
      </trkpt>
      <trkpt lat="44.58399" lon="-0.22093">
        <ele>65.2</ele>
        <time>2021-10-16T08:52:47.000Z</time>
      </trkpt>
      <trkpt lat="44.58396" lon="-0.22081">
        <ele>65.2</ele>
        <time>2021-10-16T08:52:55.000Z</time>
      </trkpt>
      <trkpt lat="44.58394" lon="-0.22067">
        <ele>65.2</ele>
        <time>2021-10-16T08:53:02.000Z</time>
      </trkpt>
      <trkpt lat="44.58392" lon="-0.22053">
        <ele>65</ele>
        <time>2021-10-16T08:53:10.000Z</time>
      </trkpt>
      <trkpt lat="44.58392" lon="-0.2204">
        <ele>64.8</ele>
        <time>2021-10-16T08:53:18.000Z</time>
      </trkpt>
      <trkpt lat="44.58392" lon="-0.22027">
        <ele>64.6</ele>
        <time>2021-10-16T08:53:26.000Z</time>
      </trkpt>
      <trkpt lat="44.58392" lon="-0.22013">
        <ele>64.4</ele>
        <time>2021-10-16T08:53:34.000Z</time>
      </trkpt>
      <trkpt lat="44.58391" lon="-0.22">
        <ele>64.2</ele>
        <time>2021-10-16T08:53:42.000Z</time>
      </trkpt>
      <trkpt lat="44.58398" lon="-0.2199">
        <ele>63.9</ele>
        <time>2021-10-16T08:53:51.000Z</time>
      </trkpt>
      <trkpt lat="44.58407" lon="-0.21985">
        <ele>63.3</ele>
        <time>2021-10-16T08:54:01.000Z</time>
      </trkpt>
      <trkpt lat="44.58415" lon="-0.2198">
        <ele>62.9</ele>
        <time>2021-10-16T08:54:09.000Z</time>
      </trkpt>
      <trkpt lat="44.58425" lon="-0.21976">
        <ele>62.3</ele>
        <time>2021-10-16T08:54:18.000Z</time>
      </trkpt>
      <trkpt lat="44.58434" lon="-0.21972">
        <ele>61.7</ele>
        <time>2021-10-16T08:54:27.000Z</time>
      </trkpt>
      <trkpt lat="44.58444" lon="-0.21972">
        <ele>61.4</ele>
        <time>2021-10-16T08:54:36.000Z</time>
      </trkpt>
      <trkpt lat="44.58454" lon="-0.21972">
        <ele>60.8</ele>
        <time>2021-10-16T08:54:45.000Z</time>
      </trkpt>
      <trkpt lat="44.58463" lon="-0.21974">
        <ele>60.2</ele>
        <time>2021-10-16T08:54:53.000Z</time>
      </trkpt>
      <trkpt lat="44.58473" lon="-0.21973">
        <ele>59.6</ele>
        <time>2021-10-16T08:55:01.000Z</time>
      </trkpt>
      <trkpt lat="44.58481" lon="-0.2197">
        <ele>59</ele>
        <time>2021-10-16T08:55:09.000Z</time>
      </trkpt>
      <trkpt lat="44.58491" lon="-0.21968">
        <ele>58.2</ele>
        <time>2021-10-16T08:55:17.000Z</time>
      </trkpt>
      <trkpt lat="44.58501" lon="-0.21966">
        <ele>57.6</ele>
        <time>2021-10-16T08:55:27.000Z</time>
      </trkpt>
      <trkpt lat="44.5851" lon="-0.2196">
        <ele>57.5</ele>
        <time>2021-10-16T08:56:25.000Z</time>
      </trkpt>
      <trkpt lat="44.58519" lon="-0.21959">
        <ele>57.4</ele>
        <time>2021-10-16T08:56:34.000Z</time>
      </trkpt>
      <trkpt lat="44.58528" lon="-0.21958">
        <ele>58.3</ele>
        <time>2021-10-16T08:56:44.000Z</time>
      </trkpt>
      <trkpt lat="44.58538" lon="-0.21956">
        <ele>58.9</ele>
        <time>2021-10-16T08:56:53.000Z</time>
      </trkpt>
      <trkpt lat="44.58547" lon="-0.21954">
        <ele>59.9</ele>
        <time>2021-10-16T08:57:03.000Z</time>
      </trkpt>
      <trkpt lat="44.58556" lon="-0.21951">
        <ele>60.9</ele>
        <time>2021-10-16T08:57:13.000Z</time>
      </trkpt>
      <trkpt lat="44.58565" lon="-0.21948">
        <ele>61.6</ele>
        <time>2021-10-16T08:57:22.000Z</time>
      </trkpt>
      <trkpt lat="44.58574" lon="-0.21945">
        <ele>62.8</ele>
        <time>2021-10-16T08:57:32.000Z</time>
      </trkpt>
      <trkpt lat="44.58583" lon="-0.21942">
        <ele>63.8</ele>
        <time>2021-10-16T08:57:42.000Z</time>
      </trkpt>
      <trkpt lat="44.58592" lon="-0.21939">
        <ele>64.4</ele>
        <time>2021-10-16T08:57:53.000Z</time>
      </trkpt>
      <trkpt lat="44.58601" lon="-0.21935">
        <ele>65.1</ele>
        <time>2021-10-16T08:58:02.000Z</time>
      </trkpt>
      <trkpt lat="44.5861" lon="-0.21933">
        <ele>66.5</ele>
        <time>2021-10-16T08:58:14.000Z</time>
      </trkpt>
      <trkpt lat="44.5862" lon="-0.21931">
        <ele>68</ele>
        <time>2021-10-16T08:58:27.000Z</time>
      </trkpt>
      <trkpt lat="44.58628" lon="-0.21926">
        <ele>69.4</ele>
        <time>2021-10-16T08:58:39.000Z</time>
      </trkpt>
      <trkpt lat="44.58638" lon="-0.21925">
        <ele>70.9</ele>
        <time>2021-10-16T08:58:52.000Z</time>
      </trkpt>
      <trkpt lat="44.58647" lon="-0.21924">
        <ele>71.8</ele>
        <time>2021-10-16T08:59:04.000Z</time>
      </trkpt>
      <trkpt lat="44.58656" lon="-0.21921">
        <ele>72.7</ele>
        <time>2021-10-16T08:59:13.000Z</time>
      </trkpt>
      <trkpt lat="44.58666" lon="-0.21918">
        <ele>74.3</ele>
        <time>2021-10-16T08:59:27.000Z</time>
      </trkpt>
      <trkpt lat="44.58675" lon="-0.21916">
        <ele>75.8</ele>
        <time>2021-10-16T08:59:39.000Z</time>
      </trkpt>
      <trkpt lat="44.58684" lon="-0.21913">
        <ele>77.4</ele>
        <time>2021-10-16T08:59:52.000Z</time>
      </trkpt>
      <trkpt lat="44.58693" lon="-0.21911">
        <ele>78.9</ele>
        <time>2021-10-16T09:00:03.000Z</time>
      </trkpt>
      <trkpt lat="44.58702" lon="-0.21905">
        <ele>80.2</ele>
        <time>2021-10-16T09:00:13.000Z</time>
      </trkpt>
      <trkpt lat="44.5871" lon="-0.219">
        <ele>81.4</ele>
        <time>2021-10-16T09:00:23.000Z</time>
      </trkpt>
      <trkpt lat="44.58719" lon="-0.21896">
        <ele>82.7</ele>
        <time>2021-10-16T09:00:33.000Z</time>
      </trkpt>
      <trkpt lat="44.58728" lon="-0.21891">
        <ele>84.5</ele>
        <time>2021-10-16T09:00:44.000Z</time>
      </trkpt>
      <trkpt lat="44.58736" lon="-0.21885">
        <ele>85.8</ele>
        <time>2021-10-16T09:00:55.000Z</time>
      </trkpt>
      <trkpt lat="44.58746" lon="-0.2188">
        <ele>87.3</ele>
        <time>2021-10-16T09:01:05.000Z</time>
      </trkpt>
      <trkpt lat="44.58755" lon="-0.21878">
        <ele>88.1</ele>
        <time>2021-10-16T09:01:15.000Z</time>
      </trkpt>
      <trkpt lat="44.58764" lon="-0.2188">
        <ele>88.8</ele>
        <time>2021-10-16T09:04:32.000Z</time>
      </trkpt>
      <trkpt lat="44.58771" lon="-0.21887">
        <ele>88.3</ele>
        <time>2021-10-16T09:04:43.000Z</time>
      </trkpt>
      <trkpt lat="44.58779" lon="-0.21894">
        <ele>88.2</ele>
        <time>2021-10-16T09:04:52.000Z</time>
      </trkpt>
      <trkpt lat="44.58788" lon="-0.21896">
        <ele>87.6</ele>
        <time>2021-10-16T09:05:01.000Z</time>
      </trkpt>
      <trkpt lat="44.58797" lon="-0.21892">
        <ele>85.7</ele>
        <time>2021-10-16T09:05:17.000Z</time>
      </trkpt>
      <trkpt lat="44.58807" lon="-0.2189">
        <ele>84.7</ele>
        <time>2021-10-16T09:05:26.000Z</time>
      </trkpt>
      <trkpt lat="44.58817" lon="-0.21888">
        <ele>83.6</ele>
        <time>2021-10-16T09:05:34.000Z</time>
      </trkpt>
      <trkpt lat="44.58827" lon="-0.21891">
        <ele>82.7</ele>
        <time>2021-10-16T09:05:43.000Z</time>
      </trkpt>
      <trkpt lat="44.58836" lon="-0.21896">
        <ele>81.6</ele>
        <time>2021-10-16T09:05:53.000Z</time>
      </trkpt>
      <trkpt lat="44.58843" lon="-0.21904">
        <ele>80.9</ele>
        <time>2021-10-16T09:06:01.000Z</time>
      </trkpt>
      <trkpt lat="44.58851" lon="-0.21911">
        <ele>79.9</ele>
        <time>2021-10-16T09:06:11.000Z</time>
      </trkpt>
      <trkpt lat="44.58859" lon="-0.21919">
        <ele>79.5</ele>
        <time>2021-10-16T09:06:20.000Z</time>
      </trkpt>
      <trkpt lat="44.58868" lon="-0.21925">
        <ele>78.9</ele>
        <time>2021-10-16T09:06:29.000Z</time>
      </trkpt>
      <trkpt lat="44.58876" lon="-0.21931">
        <ele>78.9</ele>
        <time>2021-10-16T09:06:37.000Z</time>
      </trkpt>
      <trkpt lat="44.58884" lon="-0.21938">
        <ele>78.5</ele>
        <time>2021-10-16T09:06:46.000Z</time>
      </trkpt>
      <trkpt lat="44.58892" lon="-0.21946">
        <ele>78.4</ele>
        <time>2021-10-16T09:06:54.000Z</time>
      </trkpt>
      <trkpt lat="44.58899" lon="-0.21954">
        <ele>77.9</ele>
        <time>2021-10-16T09:07:02.000Z</time>
      </trkpt>
      <trkpt lat="44.58906" lon="-0.21964">
        <ele>77.7</ele>
        <time>2021-10-16T09:07:11.000Z</time>
      </trkpt>
      <trkpt lat="44.58913" lon="-0.21971">
        <ele>77.5</ele>
        <time>2021-10-16T09:07:19.000Z</time>
      </trkpt>
      <trkpt lat="44.58921" lon="-0.21979">
        <ele>77.6</ele>
        <time>2021-10-16T09:07:27.000Z</time>
      </trkpt>
      <trkpt lat="44.5893" lon="-0.21984">
        <ele>77.5</ele>
        <time>2021-10-16T09:07:36.000Z</time>
      </trkpt>
      <trkpt lat="44.58938" lon="-0.21988">
        <ele>77.4</ele>
        <time>2021-10-16T09:07:44.000Z</time>
      </trkpt>
      <trkpt lat="44.58948" lon="-0.21988">
        <ele>77</ele>
        <time>2021-10-16T09:07:53.000Z</time>
      </trkpt>
      <trkpt lat="44.58957" lon="-0.21988">
        <ele>76.5</ele>
        <time>2021-10-16T09:08:01.000Z</time>
      </trkpt>
      <trkpt lat="44.58967" lon="-0.21988">
        <ele>76.1</ele>
        <time>2021-10-16T09:08:10.000Z</time>
      </trkpt>
      <trkpt lat="44.58976" lon="-0.21987">
        <ele>75.5</ele>
        <time>2021-10-16T09:08:18.000Z</time>
      </trkpt>
      <trkpt lat="44.58985" lon="-0.2199">
        <ele>75.1</ele>
        <time>2021-10-16T09:08:27.000Z</time>
      </trkpt>
      <trkpt lat="44.58994" lon="-0.21994">
        <ele>74.7</ele>
        <time>2021-10-16T09:08:36.000Z</time>
      </trkpt>
      <trkpt lat="44.59004" lon="-0.21998">
        <ele>73.9</ele>
        <time>2021-10-16T09:08:45.000Z</time>
      </trkpt>
      <trkpt lat="44.59013" lon="-0.22002">
        <ele>73.1</ele>
        <time>2021-10-16T09:08:54.000Z</time>
      </trkpt>
      <trkpt lat="44.59022" lon="-0.22006">
        <ele>72.8</ele>
        <time>2021-10-16T09:09:02.000Z</time>
      </trkpt>
      <trkpt lat="44.59031" lon="-0.2201">
        <ele>71.8</ele>
        <time>2021-10-16T09:09:11.000Z</time>
      </trkpt>
      <trkpt lat="44.59041" lon="-0.22009">
        <ele>71</ele>
        <time>2021-10-16T09:11:19.000Z</time>
      </trkpt>
      <trkpt lat="44.5905" lon="-0.22007">
        <ele>70.3</ele>
        <time>2021-10-16T09:11:27.000Z</time>
      </trkpt>
      <trkpt lat="44.5906" lon="-0.22003">
        <ele>69.6</ele>
        <time>2021-10-16T09:11:36.000Z</time>
      </trkpt>
      <trkpt lat="44.5907" lon="-0.22">
        <ele>68.7</ele>
        <time>2021-10-16T09:11:45.000Z</time>
      </trkpt>
      <trkpt lat="44.59079" lon="-0.22002">
        <ele>68.3</ele>
        <time>2021-10-16T09:11:51.000Z</time>
      </trkpt>
      <trkpt lat="44.59089" lon="-0.22003">
        <ele>67.6</ele>
        <time>2021-10-16T09:11:59.000Z</time>
      </trkpt>
      <trkpt lat="44.59097" lon="-0.2201">
        <ele>67</ele>
        <time>2021-10-16T09:12:06.000Z</time>
      </trkpt>
      <trkpt lat="44.59105" lon="-0.22018">
        <ele>66.5</ele>
        <time>2021-10-16T09:12:14.000Z</time>
      </trkpt>
      <trkpt lat="44.59112" lon="-0.22026">
        <ele>66.1</ele>
        <time>2021-10-16T09:12:22.000Z</time>
      </trkpt>
      <trkpt lat="44.59119" lon="-0.22035">
        <ele>65.8</ele>
        <time>2021-10-16T09:12:31.000Z</time>
      </trkpt>
      <trkpt lat="44.59126" lon="-0.22046">
        <ele>65.3</ele>
        <time>2021-10-16T09:12:40.000Z</time>
      </trkpt>
      <trkpt lat="44.59134" lon="-0.22055">
        <ele>64.7</ele>
        <time>2021-10-16T09:12:49.000Z</time>
      </trkpt>
      <trkpt lat="44.5914" lon="-0.22065">
        <ele>63.8</ele>
        <time>2021-10-16T09:12:58.000Z</time>
      </trkpt>
      <trkpt lat="44.59147" lon="-0.22074">
        <ele>63.1</ele>
        <time>2021-10-16T09:13:07.000Z</time>
      </trkpt>
      <trkpt lat="44.59154" lon="-0.22083">
        <ele>62.1</ele>
        <time>2021-10-16T09:13:15.000Z</time>
      </trkpt>
      <trkpt lat="44.5916" lon="-0.22092">
        <ele>61.3</ele>
        <time>2021-10-16T09:13:24.000Z</time>
      </trkpt>
      <trkpt lat="44.59167" lon="-0.221">
        <ele>60.1</ele>
        <time>2021-10-16T09:13:35.000Z</time>
      </trkpt>
      <trkpt lat="44.59175" lon="-0.22107">
        <ele>59</ele>
        <time>2021-10-16T09:13:44.000Z</time>
      </trkpt>
      <trkpt lat="44.59185" lon="-0.22109">
        <ele>57.9</ele>
        <time>2021-10-16T09:13:54.000Z</time>
      </trkpt>
      <trkpt lat="44.59191" lon="-0.22099">
        <ele>56.8</ele>
        <time>2021-10-16T09:14:02.000Z</time>
      </trkpt>
      <trkpt lat="44.59195" lon="-0.22087">
        <ele>55.6</ele>
        <time>2021-10-16T09:14:10.000Z</time>
      </trkpt>
      <trkpt lat="44.592" lon="-0.22075">
        <ele>54.3</ele>
        <time>2021-10-16T09:14:19.000Z</time>
      </trkpt>
      <trkpt lat="44.59204" lon="-0.22063">
        <ele>52.8</ele>
        <time>2021-10-16T09:14:28.000Z</time>
      </trkpt>
      <trkpt lat="44.5921" lon="-0.22053">
        <ele>51.5</ele>
        <time>2021-10-16T09:14:37.000Z</time>
      </trkpt>
      <trkpt lat="44.59214" lon="-0.22041">
        <ele>50</ele>
        <time>2021-10-16T09:14:47.000Z</time>
      </trkpt>
      <trkpt lat="44.59216" lon="-0.22028">
        <ele>48.3</ele>
        <time>2021-10-16T09:14:58.000Z</time>
      </trkpt>
      <trkpt lat="44.59221" lon="-0.22016">
        <ele>46.6</ele>
        <time>2021-10-16T09:15:09.000Z</time>
      </trkpt>
      <trkpt lat="44.59227" lon="-0.22006">
        <ele>45.3</ele>
        <time>2021-10-16T09:15:18.000Z</time>
      </trkpt>
      <trkpt lat="44.59234" lon="-0.21996">
        <ele>44.5</ele>
        <time>2021-10-16T09:15:27.000Z</time>
      </trkpt>
      <trkpt lat="44.59241" lon="-0.21988">
        <ele>44.1</ele>
        <time>2021-10-16T09:15:36.000Z</time>
      </trkpt>
      <trkpt lat="44.59247" lon="-0.21977">
        <ele>43.9</ele>
        <time>2021-10-16T09:15:43.000Z</time>
      </trkpt>
      <trkpt lat="44.59252" lon="-0.21965">
        <ele>44</ele>
        <time>2021-10-16T09:15:51.000Z</time>
      </trkpt>
      <trkpt lat="44.59255" lon="-0.21954">
        <ele>44</ele>
        <time>2021-10-16T09:15:59.000Z</time>
      </trkpt>
      <trkpt lat="44.59258" lon="-0.21941">
        <ele>44.5</ele>
        <time>2021-10-16T09:16:08.000Z</time>
      </trkpt>
      <trkpt lat="44.59262" lon="-0.21928">
        <ele>44.9</ele>
        <time>2021-10-16T09:16:17.000Z</time>
      </trkpt>
      <trkpt lat="44.59266" lon="-0.21917">
        <ele>45</ele>
        <time>2021-10-16T09:16:26.000Z</time>
      </trkpt>
      <trkpt lat="44.5927" lon="-0.21905">
        <ele>45.2</ele>
        <time>2021-10-16T09:16:34.000Z</time>
      </trkpt>
      <trkpt lat="44.59275" lon="-0.21894">
        <ele>45.1</ele>
        <time>2021-10-16T09:16:43.000Z</time>
      </trkpt>
      <trkpt lat="44.59282" lon="-0.21883">
        <ele>45.7</ele>
        <time>2021-10-16T09:16:52.000Z</time>
      </trkpt>
      <trkpt lat="44.59289" lon="-0.21874">
        <ele>46.1</ele>
        <time>2021-10-16T09:17:01.000Z</time>
      </trkpt>
      <trkpt lat="44.59297" lon="-0.21866">
        <ele>46.3</ele>
        <time>2021-10-16T09:17:10.000Z</time>
      </trkpt>
      <trkpt lat="44.59303" lon="-0.21856">
        <ele>46.8</ele>
        <time>2021-10-16T09:17:19.000Z</time>
      </trkpt>
      <trkpt lat="44.59308" lon="-0.21845">
        <ele>47.8</ele>
        <time>2021-10-16T09:17:29.000Z</time>
      </trkpt>
      <trkpt lat="44.59313" lon="-0.21832">
        <ele>48.5</ele>
        <time>2021-10-16T09:17:38.000Z</time>
      </trkpt>
      <trkpt lat="44.5932" lon="-0.21823">
        <ele>49.3</ele>
        <time>2021-10-16T09:17:47.000Z</time>
      </trkpt>
      <trkpt lat="44.59328" lon="-0.21818">
        <ele>50.3</ele>
        <time>2021-10-16T09:17:57.000Z</time>
      </trkpt>
      <trkpt lat="44.59337" lon="-0.21814">
        <ele>51.2</ele>
        <time>2021-10-16T09:18:06.000Z</time>
      </trkpt>
      <trkpt lat="44.59346" lon="-0.2181">
        <ele>52.1</ele>
        <time>2021-10-16T09:18:16.000Z</time>
      </trkpt>
      <trkpt lat="44.59355" lon="-0.21806">
        <ele>53.4</ele>
        <time>2021-10-16T09:18:26.000Z</time>
      </trkpt>
      <trkpt lat="44.59363" lon="-0.21801">
        <ele>54.3</ele>
        <time>2021-10-16T09:18:35.000Z</time>
      </trkpt>
      <trkpt lat="44.59372" lon="-0.21795">
        <ele>55.3</ele>
        <time>2021-10-16T09:18:46.000Z</time>
      </trkpt>
      <trkpt lat="44.59381" lon="-0.21789">
        <ele>55.8</ele>
        <time>2021-10-16T09:18:55.000Z</time>
      </trkpt>
      <trkpt lat="44.59389" lon="-0.21783">
        <ele>56.4</ele>
        <time>2021-10-16T09:19:04.000Z</time>
      </trkpt>
      <trkpt lat="44.59398" lon="-0.21776">
        <ele>57</ele>
        <time>2021-10-16T09:19:14.000Z</time>
      </trkpt>
      <trkpt lat="44.59406" lon="-0.21768">
        <ele>57.8</ele>
        <time>2021-10-16T09:19:32.000Z</time>
      </trkpt>
      <trkpt lat="44.59414" lon="-0.21762">
        <ele>58.6</ele>
        <time>2021-10-16T09:19:42.000Z</time>
      </trkpt>
      <trkpt lat="44.59423" lon="-0.21755">
        <ele>59.4</ele>
        <time>2021-10-16T09:19:52.000Z</time>
      </trkpt>
      <trkpt lat="44.59431" lon="-0.21747">
        <ele>60.5</ele>
        <time>2021-10-16T09:20:02.000Z</time>
      </trkpt>
      <trkpt lat="44.59439" lon="-0.2174">
        <ele>61.2</ele>
        <time>2021-10-16T09:20:13.000Z</time>
      </trkpt>
      <trkpt lat="44.59446" lon="-0.21733">
        <ele>62.6</ele>
        <time>2021-10-16T09:20:24.000Z</time>
      </trkpt>
      <trkpt lat="44.59454" lon="-0.21726">
        <ele>63.9</ele>
        <time>2021-10-16T09:20:35.000Z</time>
      </trkpt>
      <trkpt lat="44.59463" lon="-0.21719">
        <ele>65.1</ele>
        <time>2021-10-16T09:20:46.000Z</time>
      </trkpt>
      <trkpt lat="44.59471" lon="-0.21712">
        <ele>66.7</ele>
        <time>2021-10-16T09:20:58.000Z</time>
      </trkpt>
      <trkpt lat="44.59479" lon="-0.21706">
        <ele>68.1</ele>
        <time>2021-10-16T09:21:20.000Z</time>
      </trkpt>
      <trkpt lat="44.59488" lon="-0.21698">
        <ele>68.9</ele>
        <time>2021-10-16T09:21:30.000Z</time>
      </trkpt>
      <trkpt lat="44.59495" lon="-0.21691">
        <ele>70.1</ele>
        <time>2021-10-16T09:21:41.000Z</time>
      </trkpt>
      <trkpt lat="44.59503" lon="-0.21685">
        <ele>71.4</ele>
        <time>2021-10-16T09:21:52.000Z</time>
      </trkpt>
      <trkpt lat="44.59512" lon="-0.2168">
        <ele>73.1</ele>
        <time>2021-10-16T09:22:05.000Z</time>
      </trkpt>
      <trkpt lat="44.5952" lon="-0.21673">
        <ele>74.7</ele>
        <time>2021-10-16T09:22:20.000Z</time>
      </trkpt>
      <trkpt lat="44.59527" lon="-0.21665">
        <ele>76</ele>
        <time>2021-10-16T09:22:29.000Z</time>
      </trkpt>
      <trkpt lat="44.59535" lon="-0.21658">
        <ele>77</ele>
        <time>2021-10-16T09:22:40.000Z</time>
      </trkpt>
      <trkpt lat="44.59543" lon="-0.21651">
        <ele>78.1</ele>
        <time>2021-10-16T09:22:51.000Z</time>
      </trkpt>
      <trkpt lat="44.59549" lon="-0.21642">
        <ele>79.6</ele>
        <time>2021-10-16T09:23:20.000Z</time>
      </trkpt>
      <trkpt lat="44.59557" lon="-0.21636">
        <ele>79.8</ele>
        <time>2021-10-16T09:24:04.000Z</time>
      </trkpt>
      <trkpt lat="44.59565" lon="-0.21645">
        <ele>79.6</ele>
        <time>2021-10-16T09:24:15.000Z</time>
      </trkpt>
      <trkpt lat="44.5957" lon="-0.21656">
        <ele>78.7</ele>
        <time>2021-10-16T09:24:26.000Z</time>
      </trkpt>
      <trkpt lat="44.59575" lon="-0.21668">
        <ele>78.3</ele>
        <time>2021-10-16T09:24:36.000Z</time>
      </trkpt>
      <trkpt lat="44.5958" lon="-0.2168">
        <ele>77.7</ele>
        <time>2021-10-16T09:24:46.000Z</time>
      </trkpt>
      <trkpt lat="44.59585" lon="-0.21691">
        <ele>77.6</ele>
        <time>2021-10-16T09:24:56.000Z</time>
      </trkpt>
      <trkpt lat="44.59588" lon="-0.21705">
        <ele>77.7</ele>
        <time>2021-10-16T09:25:06.000Z</time>
      </trkpt>
      <trkpt lat="44.59592" lon="-0.21716">
        <ele>77.2</ele>
        <time>2021-10-16T09:25:15.000Z</time>
      </trkpt>
      <trkpt lat="44.59597" lon="-0.21728">
        <ele>77.1</ele>
        <time>2021-10-16T09:25:26.000Z</time>
      </trkpt>
      <trkpt lat="44.59602" lon="-0.21741">
        <ele>77</ele>
        <time>2021-10-16T09:25:36.000Z</time>
      </trkpt>
      <trkpt lat="44.59604" lon="-0.21754">
        <ele>77</ele>
        <time>2021-10-16T09:25:46.000Z</time>
      </trkpt>
      <trkpt lat="44.59605" lon="-0.21766">
        <ele>77</ele>
        <time>2021-10-16T09:25:59.000Z</time>
      </trkpt>
      <trkpt lat="44.59608" lon="-0.21778">
        <ele>76.7</ele>
        <time>2021-10-16T09:26:08.000Z</time>
      </trkpt>
      <trkpt lat="44.59612" lon="-0.2179">
        <ele>76.5</ele>
        <time>2021-10-16T09:26:17.000Z</time>
      </trkpt>
      <trkpt lat="44.59615" lon="-0.21803">
        <ele>76.2</ele>
        <time>2021-10-16T09:26:27.000Z</time>
      </trkpt>
      <trkpt lat="44.59619" lon="-0.21815">
        <ele>76.2</ele>
        <time>2021-10-16T09:26:36.000Z</time>
      </trkpt>
      <trkpt lat="44.59622" lon="-0.21828">
        <ele>76.2</ele>
        <time>2021-10-16T09:26:46.000Z</time>
      </trkpt>
      <trkpt lat="44.59626" lon="-0.2184">
        <ele>76.2</ele>
        <time>2021-10-16T09:26:55.000Z</time>
      </trkpt>
      <trkpt lat="44.59629" lon="-0.21852">
        <ele>76</ele>
        <time>2021-10-16T09:27:03.000Z</time>
      </trkpt>
      <trkpt lat="44.59634" lon="-0.21863">
        <ele>75.6</ele>
        <time>2021-10-16T09:27:11.000Z</time>
      </trkpt>
      <trkpt lat="44.59634" lon="-0.21876">
        <ele>75.2</ele>
        <time>2021-10-16T09:27:21.000Z</time>
      </trkpt>
      <trkpt lat="44.59641" lon="-0.21886">
        <ele>75</ele>
        <time>2021-10-16T09:27:45.000Z</time>
      </trkpt>
      <trkpt lat="44.59645" lon="-0.21898">
        <ele>74.7</ele>
        <time>2021-10-16T09:27:54.000Z</time>
      </trkpt>
      <trkpt lat="44.59649" lon="-0.21909">
        <ele>74.1</ele>
        <time>2021-10-16T09:28:02.000Z</time>
      </trkpt>
      <trkpt lat="44.59653" lon="-0.21922">
        <ele>73.4</ele>
        <time>2021-10-16T09:28:10.000Z</time>
      </trkpt>
      <trkpt lat="44.59654" lon="-0.21936">
        <ele>73</ele>
        <time>2021-10-16T09:28:18.000Z</time>
      </trkpt>
      <trkpt lat="44.59657" lon="-0.21948">
        <ele>72.8</ele>
        <time>2021-10-16T09:28:27.000Z</time>
      </trkpt>
      <trkpt lat="44.59659" lon="-0.21962">
        <ele>72.9</ele>
        <time>2021-10-16T09:28:36.000Z</time>
      </trkpt>
      <trkpt lat="44.59661" lon="-0.21976">
        <ele>72.4</ele>
        <time>2021-10-16T09:28:44.000Z</time>
      </trkpt>
      <trkpt lat="44.59662" lon="-0.21988">
        <ele>71.9</ele>
        <time>2021-10-16T09:28:52.000Z</time>
      </trkpt>
      <trkpt lat="44.59664" lon="-0.22002">
        <ele>71.8</ele>
        <time>2021-10-16T09:29:00.000Z</time>
      </trkpt>
      <trkpt lat="44.59665" lon="-0.22015">
        <ele>71.4</ele>
        <time>2021-10-16T09:29:09.000Z</time>
      </trkpt>
      <trkpt lat="44.59663" lon="-0.22029">
        <ele>71.4</ele>
        <time>2021-10-16T09:29:17.000Z</time>
      </trkpt>
      <trkpt lat="44.59663" lon="-0.22043">
        <ele>71.1</ele>
        <time>2021-10-16T09:29:26.000Z</time>
      </trkpt>
      <trkpt lat="44.59663" lon="-0.22056">
        <ele>71.1</ele>
        <time>2021-10-16T09:29:35.000Z</time>
      </trkpt>
      <trkpt lat="44.5967" lon="-0.22065">
        <ele>71.4</ele>
        <time>2021-10-16T09:29:46.000Z</time>
      </trkpt>
      <trkpt lat="44.59678" lon="-0.22071">
        <ele>71.6</ele>
        <time>2021-10-16T09:29:56.000Z</time>
      </trkpt>
      <trkpt lat="44.59688" lon="-0.22074">
        <ele>71.6</ele>
        <time>2021-10-16T09:30:05.000Z</time>
      </trkpt>
      <trkpt lat="44.59698" lon="-0.22079">
        <ele>71.4</ele>
        <time>2021-10-16T09:30:14.000Z</time>
      </trkpt>
      <trkpt lat="44.59706" lon="-0.22085">
        <ele>70.3</ele>
        <time>2021-10-16T09:30:23.000Z</time>
      </trkpt>
      <trkpt lat="44.59715" lon="-0.22089">
        <ele>68.7</ele>
        <time>2021-10-16T09:30:31.000Z</time>
      </trkpt>
      <trkpt lat="44.59725" lon="-0.2209">
        <ele>67.7</ele>
        <time>2021-10-16T09:30:39.000Z</time>
      </trkpt>
      <trkpt lat="44.59734" lon="-0.22088">
        <ele>66.6</ele>
        <time>2021-10-16T09:30:51.000Z</time>
      </trkpt>
      <trkpt lat="44.59743" lon="-0.22085">
        <ele>66.1</ele>
        <time>2021-10-16T09:32:50.000Z</time>
      </trkpt>
      <trkpt lat="44.5975" lon="-0.22093">
        <ele>65.2</ele>
        <time>2021-10-16T09:33:19.000Z</time>
      </trkpt>
      <trkpt lat="44.59758" lon="-0.22101">
        <ele>64.5</ele>
        <time>2021-10-16T09:33:31.000Z</time>
      </trkpt>
      <trkpt lat="44.59766" lon="-0.22109">
        <ele>64.1</ele>
        <time>2021-10-16T09:33:42.000Z</time>
      </trkpt>
      <trkpt lat="44.59773" lon="-0.22118">
        <ele>63.7</ele>
        <time>2021-10-16T09:33:53.000Z</time>
      </trkpt>
      <trkpt lat="44.59779" lon="-0.22128">
        <ele>63.1</ele>
        <time>2021-10-16T09:34:04.000Z</time>
      </trkpt>
      <trkpt lat="44.59785" lon="-0.22138">
        <ele>62.9</ele>
        <time>2021-10-16T09:34:15.000Z</time>
      </trkpt>
      <trkpt lat="44.59791" lon="-0.22147">
        <ele>62.5</ele>
        <time>2021-10-16T09:34:25.000Z</time>
      </trkpt>
      <trkpt lat="44.59797" lon="-0.22157">
        <ele>62</ele>
        <time>2021-10-16T09:34:35.000Z</time>
      </trkpt>
      <trkpt lat="44.59802" lon="-0.22168">
        <ele>61.5</ele>
        <time>2021-10-16T09:34:44.000Z</time>
      </trkpt>
      <trkpt lat="44.59806" lon="-0.2218">
        <ele>60.9</ele>
        <time>2021-10-16T09:34:53.000Z</time>
      </trkpt>
      <trkpt lat="44.5981" lon="-0.22192">
        <ele>60.3</ele>
        <time>2021-10-16T09:35:02.000Z</time>
      </trkpt>
      <trkpt lat="44.59816" lon="-0.22203">
        <ele>59.9</ele>
        <time>2021-10-16T09:35:12.000Z</time>
      </trkpt>
      <trkpt lat="44.59819" lon="-0.22216">
        <ele>59.4</ele>
        <time>2021-10-16T09:35:20.000Z</time>
      </trkpt>
      <trkpt lat="44.59822" lon="-0.22229">
        <ele>59</ele>
        <time>2021-10-16T09:35:30.000Z</time>
      </trkpt>
      <trkpt lat="44.59828" lon="-0.22239">
        <ele>58.7</ele>
        <time>2021-10-16T09:35:40.000Z</time>
      </trkpt>
      <trkpt lat="44.59833" lon="-0.2225">
        <ele>58.2</ele>
        <time>2021-10-16T09:35:49.000Z</time>
      </trkpt>
      <trkpt lat="44.59838" lon="-0.22261">
        <ele>58</ele>
        <time>2021-10-16T09:35:58.000Z</time>
      </trkpt>
      <trkpt lat="44.59842" lon="-0.22273">
        <ele>58.1</ele>
        <time>2021-10-16T09:36:07.000Z</time>
      </trkpt>
      <trkpt lat="44.59847" lon="-0.22284">
        <ele>57.5</ele>
        <time>2021-10-16T09:36:17.000Z</time>
      </trkpt>
      <trkpt lat="44.59853" lon="-0.22295">
        <ele>57.4</ele>
        <time>2021-10-16T09:36:27.000Z</time>
      </trkpt>
      <trkpt lat="44.59857" lon="-0.22306">
        <ele>57.3</ele>
        <time>2021-10-16T09:36:36.000Z</time>
      </trkpt>
      <trkpt lat="44.59863" lon="-0.22316">
        <ele>56.8</ele>
        <time>2021-10-16T09:36:46.000Z</time>
      </trkpt>
      <trkpt lat="44.5987" lon="-0.22326">
        <ele>56.2</ele>
        <time>2021-10-16T09:36:55.000Z</time>
      </trkpt>
      <trkpt lat="44.59875" lon="-0.22337">
        <ele>55.6</ele>
        <time>2021-10-16T09:37:04.000Z</time>
      </trkpt>
      <trkpt lat="44.59879" lon="-0.22349">
        <ele>54.9</ele>
        <time>2021-10-16T09:37:17.000Z</time>
      </trkpt>
      <trkpt lat="44.59884" lon="-0.22361">
        <ele>54</ele>
        <time>2021-10-16T09:37:27.000Z</time>
      </trkpt>
      <trkpt lat="44.59888" lon="-0.22373">
        <ele>53.4</ele>
        <time>2021-10-16T09:37:36.000Z</time>
      </trkpt>
      <trkpt lat="44.59893" lon="-0.22385">
        <ele>52.6</ele>
        <time>2021-10-16T09:37:47.000Z</time>
      </trkpt>
      <trkpt lat="44.59897" lon="-0.22397">
        <ele>51.9</ele>
        <time>2021-10-16T09:37:57.000Z</time>
      </trkpt>
      <trkpt lat="44.59901" lon="-0.2241">
        <ele>51.1</ele>
        <time>2021-10-16T09:38:07.000Z</time>
      </trkpt>
      <trkpt lat="44.59902" lon="-0.22423">
        <ele>50.2</ele>
        <time>2021-10-16T09:38:19.000Z</time>
      </trkpt>
      <trkpt lat="44.599" lon="-0.22437">
        <ele>49.1</ele>
        <time>2021-10-16T09:38:28.000Z</time>
      </trkpt>
      <trkpt lat="44.59901" lon="-0.22451">
        <ele>48.1</ele>
        <time>2021-10-16T09:38:38.000Z</time>
      </trkpt>
      <trkpt lat="44.59902" lon="-0.22465">
        <ele>47.4</ele>
        <time>2021-10-16T09:38:47.000Z</time>
      </trkpt>
      <trkpt lat="44.59903" lon="-0.22477">
        <ele>46.6</ele>
        <time>2021-10-16T09:38:56.000Z</time>
      </trkpt>
      <trkpt lat="44.59905" lon="-0.22491">
        <ele>45.5</ele>
        <time>2021-10-16T09:39:06.000Z</time>
      </trkpt>
      <trkpt lat="44.59914" lon="-0.22495">
        <ele>44.6</ele>
        <time>2021-10-16T09:39:17.000Z</time>
      </trkpt>
      <trkpt lat="44.59924" lon="-0.2249">
        <ele>44</ele>
        <time>2021-10-16T09:39:26.000Z</time>
      </trkpt>
      <trkpt lat="44.59932" lon="-0.22485">
        <ele>43.3</ele>
        <time>2021-10-16T09:39:36.000Z</time>
      </trkpt>
      <trkpt lat="44.59942" lon="-0.22481">
        <ele>42.9</ele>
        <time>2021-10-16T09:39:46.000Z</time>
      </trkpt>
      <trkpt lat="44.59951" lon="-0.22478">
        <ele>42.4</ele>
        <time>2021-10-16T09:39:56.000Z</time>
      </trkpt>
      <trkpt lat="44.59961" lon="-0.22475">
        <ele>41.8</ele>
        <time>2021-10-16T09:40:06.000Z</time>
      </trkpt>
      <trkpt lat="44.59969" lon="-0.22473">
        <ele>41.2</ele>
        <time>2021-10-16T09:40:15.000Z</time>
      </trkpt>
      <trkpt lat="44.59979" lon="-0.22469">
        <ele>40.5</ele>
        <time>2021-10-16T09:40:25.000Z</time>
      </trkpt>
      <trkpt lat="44.59989" lon="-0.22467">
        <ele>39.3</ele>
        <time>2021-10-16T09:40:36.000Z</time>
      </trkpt>
      <trkpt lat="44.59998" lon="-0.22464">
        <ele>39.3</ele>
        <time>2021-10-16T09:40:43.000Z</time>
      </trkpt>
      <trkpt lat="44.60007" lon="-0.22461">
        <ele>38.7</ele>
        <time>2021-10-16T09:40:51.000Z</time>
      </trkpt>
      <trkpt lat="44.60016" lon="-0.22459">
        <ele>38.3</ele>
        <time>2021-10-16T09:40:59.000Z</time>
      </trkpt>
      <trkpt lat="44.60025" lon="-0.22457">
        <ele>37.6</ele>
        <time>2021-10-16T09:41:09.000Z</time>
      </trkpt>
      <trkpt lat="44.60035" lon="-0.22455">
        <ele>37.2</ele>
        <time>2021-10-16T09:41:19.000Z</time>
      </trkpt>
      <trkpt lat="44.60045" lon="-0.22453">
        <ele>36.5</ele>
        <time>2021-10-16T09:41:30.000Z</time>
      </trkpt>
      <trkpt lat="44.60054" lon="-0.22455">
        <ele>36.3</ele>
        <time>2021-10-16T09:41:40.000Z</time>
      </trkpt>
      <trkpt lat="44.60064" lon="-0.22454">
        <ele>36.1</ele>
        <time>2021-10-16T09:41:49.000Z</time>
      </trkpt>
      <trkpt lat="44.60073" lon="-0.22452">
        <ele>35.7</ele>
        <time>2021-10-16T09:41:58.000Z</time>
      </trkpt>
      <trkpt lat="44.60083" lon="-0.22449">
        <ele>35.6</ele>
        <time>2021-10-16T09:42:06.000Z</time>
      </trkpt>
      <trkpt lat="44.60093" lon="-0.22452">
        <ele>35.3</ele>
        <time>2021-10-16T09:42:15.000Z</time>
      </trkpt>
      <trkpt lat="44.60101" lon="-0.22445">
        <ele>35</ele>
        <time>2021-10-16T09:42:24.000Z</time>
      </trkpt>
      <trkpt lat="44.6011" lon="-0.22443">
        <ele>34.4</ele>
        <time>2021-10-16T09:42:32.000Z</time>
      </trkpt>
      <trkpt lat="44.6012" lon="-0.22444">
        <ele>33.7</ele>
        <time>2021-10-16T09:42:42.000Z</time>
      </trkpt>
      <trkpt lat="44.6013" lon="-0.22444">
        <ele>33.1</ele>
        <time>2021-10-16T09:42:51.000Z</time>
      </trkpt>
      <trkpt lat="44.60139" lon="-0.22446">
        <ele>32.9</ele>
        <time>2021-10-16T09:43:00.000Z</time>
      </trkpt>
      <trkpt lat="44.60149" lon="-0.22448">
        <ele>32.4</ele>
        <time>2021-10-16T09:43:09.000Z</time>
      </trkpt>
      <trkpt lat="44.60159" lon="-0.22449">
        <ele>32</ele>
        <time>2021-10-16T09:43:18.000Z</time>
      </trkpt>
      <trkpt lat="44.60168" lon="-0.22453">
        <ele>31.7</ele>
        <time>2021-10-16T09:43:29.000Z</time>
      </trkpt>
      <trkpt lat="44.60178" lon="-0.22454">
        <ele>31.4</ele>
        <time>2021-10-16T09:43:38.000Z</time>
      </trkpt>
      <trkpt lat="44.60187" lon="-0.22458">
        <ele>30.9</ele>
        <time>2021-10-16T09:43:47.000Z</time>
      </trkpt>
      <trkpt lat="44.60196" lon="-0.22461">
        <ele>30.3</ele>
        <time>2021-10-16T09:43:57.000Z</time>
      </trkpt>
      <trkpt lat="44.60205" lon="-0.2246">
        <ele>30.2</ele>
        <time>2021-10-16T09:44:08.000Z</time>
      </trkpt>
      <trkpt lat="44.60204" lon="-0.22447">
        <ele>30.1</ele>
        <time>2021-10-16T09:44:55.000Z</time>
      </trkpt>
      <trkpt lat="44.60198" lon="-0.22437">
        <ele>30.2</ele>
        <time>2021-10-16T09:45:10.000Z</time>
      </trkpt>
      <trkpt lat="44.60193" lon="-0.22425">
        <ele>30.3</ele>
        <time>2021-10-16T09:45:20.000Z</time>
      </trkpt>
      <trkpt lat="44.60189" lon="-0.22414">
        <ele>30.2</ele>
        <time>2021-10-16T09:45:28.000Z</time>
      </trkpt>
      <trkpt lat="44.60183" lon="-0.22403">
        <ele>30.2</ele>
        <time>2021-10-16T09:45:36.000Z</time>
      </trkpt>
      <trkpt lat="44.60178" lon="-0.22392">
        <ele>30.4</ele>
        <time>2021-10-16T09:45:47.000Z</time>
      </trkpt>
      <trkpt lat="44.60173" lon="-0.22379">
        <ele>30.4</ele>
        <time>2021-10-16T09:45:57.000Z</time>
      </trkpt>
      <trkpt lat="44.60169" lon="-0.22367">
        <ele>30.4</ele>
        <time>2021-10-16T09:46:06.000Z</time>
      </trkpt>
      <trkpt lat="44.60165" lon="-0.22356">
        <ele>30.7</ele>
        <time>2021-10-16T09:46:14.000Z</time>
      </trkpt>
      <trkpt lat="44.60161" lon="-0.22344">
        <ele>30.9</ele>
        <time>2021-10-16T09:46:23.000Z</time>
      </trkpt>
      <trkpt lat="44.60155" lon="-0.22332">
        <ele>31</ele>
        <time>2021-10-16T09:46:33.000Z</time>
      </trkpt>
      <trkpt lat="44.60151" lon="-0.22321">
        <ele>31.1</ele>
        <time>2021-10-16T09:46:41.000Z</time>
      </trkpt>
      <trkpt lat="44.60147" lon="-0.22309">
        <ele>31.3</ele>
        <time>2021-10-16T09:46:50.000Z</time>
      </trkpt>
      <trkpt lat="44.60144" lon="-0.22296">
        <ele>31.5</ele>
        <time>2021-10-16T09:46:59.000Z</time>
      </trkpt>
      <trkpt lat="44.6014" lon="-0.22285">
        <ele>32</ele>
        <time>2021-10-16T09:47:08.000Z</time>
      </trkpt>
      <trkpt lat="44.60134" lon="-0.22272">
        <ele>32.5</ele>
        <time>2021-10-16T09:47:19.000Z</time>
      </trkpt>
      <trkpt lat="44.6013" lon="-0.2226">
        <ele>33.2</ele>
        <time>2021-10-16T09:47:28.000Z</time>
      </trkpt>
      <trkpt lat="44.60125" lon="-0.22249">
        <ele>33.8</ele>
        <time>2021-10-16T09:47:38.000Z</time>
      </trkpt>
      <trkpt lat="44.60121" lon="-0.22236">
        <ele>34.8</ele>
        <time>2021-10-16T09:47:48.000Z</time>
      </trkpt>
      <trkpt lat="44.60116" lon="-0.22224">
        <ele>35.2</ele>
        <time>2021-10-16T09:47:57.000Z</time>
      </trkpt>
      <trkpt lat="44.60112" lon="-0.22212">
        <ele>35.7</ele>
        <time>2021-10-16T09:48:06.000Z</time>
      </trkpt>
      <trkpt lat="44.60107" lon="-0.22201">
        <ele>36.3</ele>
        <time>2021-10-16T09:48:15.000Z</time>
      </trkpt>
      <trkpt lat="44.60105" lon="-0.22188">
        <ele>36.5</ele>
        <time>2021-10-16T09:48:23.000Z</time>
      </trkpt>
      <trkpt lat="44.60105" lon="-0.22175">
        <ele>37.4</ele>
        <time>2021-10-16T09:48:33.000Z</time>
      </trkpt>
      <trkpt lat="44.60101" lon="-0.22163">
        <ele>38.3</ele>
        <time>2021-10-16T09:48:44.000Z</time>
      </trkpt>
      <trkpt lat="44.60096" lon="-0.22152">
        <ele>38.8</ele>
        <time>2021-10-16T09:48:54.000Z</time>
      </trkpt>
      <trkpt lat="44.60092" lon="-0.22139">
        <ele>39.2</ele>
        <time>2021-10-16T09:49:03.000Z</time>
      </trkpt>
      <trkpt lat="44.6009" lon="-0.22126">
        <ele>39.7</ele>
        <time>2021-10-16T09:49:11.000Z</time>
      </trkpt>
      <trkpt lat="44.60087" lon="-0.22113">
        <ele>40.4</ele>
        <time>2021-10-16T09:49:21.000Z</time>
      </trkpt>
      <trkpt lat="44.60083" lon="-0.22101">
        <ele>41.2</ele>
        <time>2021-10-16T09:49:30.000Z</time>
      </trkpt>
      <trkpt lat="44.60079" lon="-0.2209">
        <ele>41.3</ele>
        <time>2021-10-16T09:49:38.000Z</time>
      </trkpt>
      <trkpt lat="44.60075" lon="-0.22078">
        <ele>41.7</ele>
        <time>2021-10-16T09:49:47.000Z</time>
      </trkpt>
      <trkpt lat="44.60071" lon="-0.22067">
        <ele>42</ele>
        <time>2021-10-16T09:49:56.000Z</time>
      </trkpt>
      <trkpt lat="44.60067" lon="-0.22055">
        <ele>42.4</ele>
        <time>2021-10-16T09:50:06.000Z</time>
      </trkpt>
      <trkpt lat="44.60062" lon="-0.22043">
        <ele>42.7</ele>
        <time>2021-10-16T09:50:16.000Z</time>
      </trkpt>
      <trkpt lat="44.60058" lon="-0.22031">
        <ele>43</ele>
        <time>2021-10-16T09:50:25.000Z</time>
      </trkpt>
      <trkpt lat="44.60054" lon="-0.22019">
        <ele>43.4</ele>
        <time>2021-10-16T09:50:35.000Z</time>
      </trkpt>
      <trkpt lat="44.6005" lon="-0.22008">
        <ele>43.8</ele>
        <time>2021-10-16T09:50:45.000Z</time>
      </trkpt>
      <trkpt lat="44.60046" lon="-0.21996">
        <ele>44.1</ele>
        <time>2021-10-16T09:50:55.000Z</time>
      </trkpt>
      <trkpt lat="44.60042" lon="-0.21984">
        <ele>44.7</ele>
        <time>2021-10-16T09:51:05.000Z</time>
      </trkpt>
      <trkpt lat="44.60038" lon="-0.21973">
        <ele>45.1</ele>
        <time>2021-10-16T09:51:15.000Z</time>
      </trkpt>
      <trkpt lat="44.60035" lon="-0.2196">
        <ele>45.4</ele>
        <time>2021-10-16T09:51:25.000Z</time>
      </trkpt>
      <trkpt lat="44.60033" lon="-0.21948">
        <ele>46.1</ele>
        <time>2021-10-16T09:51:34.000Z</time>
      </trkpt>
      <trkpt lat="44.6003" lon="-0.21936">
        <ele>46.5</ele>
        <time>2021-10-16T09:51:43.000Z</time>
      </trkpt>
      <trkpt lat="44.60026" lon="-0.21923">
        <ele>46.4</ele>
        <time>2021-10-16T09:51:53.000Z</time>
      </trkpt>
      <trkpt lat="44.60024" lon="-0.21909">
        <ele>46.6</ele>
        <time>2021-10-16T09:52:03.000Z</time>
      </trkpt>
      <trkpt lat="44.60023" lon="-0.21896">
        <ele>46.6</ele>
        <time>2021-10-16T09:52:13.000Z</time>
      </trkpt>
      <trkpt lat="44.60023" lon="-0.21883">
        <ele>46.5</ele>
        <time>2021-10-16T09:52:22.000Z</time>
      </trkpt>
      <trkpt lat="44.60022" lon="-0.2187">
        <ele>46.5</ele>
        <time>2021-10-16T09:52:31.000Z</time>
      </trkpt>
      <trkpt lat="44.60022" lon="-0.21857">
        <ele>46.8</ele>
        <time>2021-10-16T09:52:41.000Z</time>
      </trkpt>
      <trkpt lat="44.60021" lon="-0.21843">
        <ele>47</ele>
        <time>2021-10-16T09:52:51.000Z</time>
      </trkpt>
      <trkpt lat="44.60021" lon="-0.2183">
        <ele>47.2</ele>
        <time>2021-10-16T09:53:01.000Z</time>
      </trkpt>
      <trkpt lat="44.60013" lon="-0.21824">
        <ele>48</ele>
        <time>2021-10-16T09:54:16.000Z</time>
      </trkpt>
      <trkpt lat="44.60016" lon="-0.21812">
        <ele>47.9</ele>
        <time>2021-10-16T09:55:35.000Z</time>
      </trkpt>
      <trkpt lat="44.60016" lon="-0.21799">
        <ele>48.5</ele>
        <time>2021-10-16T09:55:47.000Z</time>
      </trkpt>
      <trkpt lat="44.60018" lon="-0.21786">
        <ele>48.7</ele>
        <time>2021-10-16T09:55:57.000Z</time>
      </trkpt>
      <trkpt lat="44.60017" lon="-0.21772">
        <ele>48.9</ele>
        <time>2021-10-16T09:56:08.000Z</time>
      </trkpt>
      <trkpt lat="44.60014" lon="-0.2176">
        <ele>48.5</ele>
        <time>2021-10-16T09:56:18.000Z</time>
      </trkpt>
      <trkpt lat="44.60017" lon="-0.21747">
        <ele>48.9</ele>
        <time>2021-10-16T09:56:28.000Z</time>
      </trkpt>
      <trkpt lat="44.60019" lon="-0.21734">
        <ele>49</ele>
        <time>2021-10-16T09:56:39.000Z</time>
      </trkpt>
      <trkpt lat="44.60021" lon="-0.21721">
        <ele>49.3</ele>
        <time>2021-10-16T09:56:51.000Z</time>
      </trkpt>
      <trkpt lat="44.60023" lon="-0.21707">
        <ele>49.9</ele>
        <time>2021-10-16T09:57:08.000Z</time>
      </trkpt>
      <trkpt lat="44.60024" lon="-0.21693">
        <ele>49.8</ele>
        <time>2021-10-16T09:57:19.000Z</time>
      </trkpt>
      <trkpt lat="44.60026" lon="-0.2168">
        <ele>50.1</ele>
        <time>2021-10-16T09:57:30.000Z</time>
      </trkpt>
      <trkpt lat="44.60027" lon="-0.21667">
        <ele>50.1</ele>
        <time>2021-10-16T09:57:40.000Z</time>
      </trkpt>
      <trkpt lat="44.60028" lon="-0.21654">
        <ele>50.1</ele>
        <time>2021-10-16T09:57:50.000Z</time>
      </trkpt>
      <trkpt lat="44.6003" lon="-0.21641">
        <ele>50.2</ele>
        <time>2021-10-16T09:58:00.000Z</time>
      </trkpt>
      <trkpt lat="44.60032" lon="-0.21629">
        <ele>50.4</ele>
        <time>2021-10-16T09:58:09.000Z</time>
      </trkpt>
      <trkpt lat="44.60036" lon="-0.21616">
        <ele>50.3</ele>
        <time>2021-10-16T09:58:20.000Z</time>
      </trkpt>
      <trkpt lat="44.60037" lon="-0.21603">
        <ele>50.9</ele>
        <time>2021-10-16T09:58:31.000Z</time>
      </trkpt>
      <trkpt lat="44.60037" lon="-0.2159">
        <ele>51.1</ele>
        <time>2021-10-16T09:58:40.000Z</time>
      </trkpt>
      <trkpt lat="44.60038" lon="-0.21577">
        <ele>51.3</ele>
        <time>2021-10-16T09:58:50.000Z</time>
      </trkpt>
      <trkpt lat="44.60039" lon="-0.21564">
        <ele>51.4</ele>
        <time>2021-10-16T09:58:59.000Z</time>
      </trkpt>
      <trkpt lat="44.60041" lon="-0.21551">
        <ele>51.7</ele>
        <time>2021-10-16T09:59:08.000Z</time>
      </trkpt>
      <trkpt lat="44.60043" lon="-0.21538">
        <ele>51.9</ele>
        <time>2021-10-16T09:59:17.000Z</time>
      </trkpt>
      <trkpt lat="44.60045" lon="-0.21525">
        <ele>52.2</ele>
        <time>2021-10-16T09:59:26.000Z</time>
      </trkpt>
      <trkpt lat="44.60046" lon="-0.21512">
        <ele>52.3</ele>
        <time>2021-10-16T09:59:36.000Z</time>
      </trkpt>
      <trkpt lat="44.60047" lon="-0.21499">
        <ele>52.8</ele>
        <time>2021-10-16T09:59:46.000Z</time>
      </trkpt>
      <trkpt lat="44.60048" lon="-0.21485">
        <ele>53</ele>
        <time>2021-10-16T09:59:57.000Z</time>
      </trkpt>
      <trkpt lat="44.60049" lon="-0.21472">
        <ele>53.4</ele>
        <time>2021-10-16T10:00:07.000Z</time>
      </trkpt>
      <trkpt lat="44.6005" lon="-0.21458">
        <ele>53.8</ele>
        <time>2021-10-16T10:00:17.000Z</time>
      </trkpt>
      <trkpt lat="44.60051" lon="-0.21445">
        <ele>54.1</ele>
        <time>2021-10-16T10:00:28.000Z</time>
      </trkpt>
      <trkpt lat="44.60054" lon="-0.21432">
        <ele>54.7</ele>
        <time>2021-10-16T10:00:37.000Z</time>
      </trkpt>
      <trkpt lat="44.60055" lon="-0.21419">
        <ele>55.3</ele>
        <time>2021-10-16T10:00:46.000Z</time>
      </trkpt>
      <trkpt lat="44.60056" lon="-0.21406">
        <ele>55.7</ele>
        <time>2021-10-16T10:00:56.000Z</time>
      </trkpt>
      <trkpt lat="44.60057" lon="-0.21392">
        <ele>56.2</ele>
        <time>2021-10-16T10:01:06.000Z</time>
      </trkpt>
      <trkpt lat="44.60059" lon="-0.21378">
        <ele>56.6</ele>
        <time>2021-10-16T10:01:16.000Z</time>
      </trkpt>
      <trkpt lat="44.6006" lon="-0.21366">
        <ele>57.1</ele>
        <time>2021-10-16T10:01:26.000Z</time>
      </trkpt>
      <trkpt lat="44.60061" lon="-0.21352">
        <ele>57.7</ele>
        <time>2021-10-16T10:01:35.000Z</time>
      </trkpt>
      <trkpt lat="44.60061" lon="-0.21339">
        <ele>58.2</ele>
        <time>2021-10-16T10:01:44.000Z</time>
      </trkpt>
      <trkpt lat="44.60062" lon="-0.21325">
        <ele>58.8</ele>
        <time>2021-10-16T10:01:54.000Z</time>
      </trkpt>
      <trkpt lat="44.60063" lon="-0.21312">
        <ele>59.5</ele>
        <time>2021-10-16T10:02:04.000Z</time>
      </trkpt>
      <trkpt lat="44.60063" lon="-0.21298">
        <ele>60.3</ele>
        <time>2021-10-16T10:02:14.000Z</time>
      </trkpt>
      <trkpt lat="44.60063" lon="-0.21285">
        <ele>60.8</ele>
        <time>2021-10-16T10:02:25.000Z</time>
      </trkpt>
      <trkpt lat="44.60056" lon="-0.21277">
        <ele>60.6</ele>
        <time>2021-10-16T10:03:28.000Z</time>
      </trkpt>
      <trkpt lat="44.60053" lon="-0.21265">
        <ele>60.3</ele>
        <time>2021-10-16T10:03:53.000Z</time>
      </trkpt>
      <trkpt lat="44.60052" lon="-0.21251">
        <ele>60.9</ele>
        <time>2021-10-16T10:04:04.000Z</time>
      </trkpt>
      <trkpt lat="44.6005" lon="-0.21237">
        <ele>61.7</ele>
        <time>2021-10-16T10:04:14.000Z</time>
      </trkpt>
      <trkpt lat="44.60049" lon="-0.21225">
        <ele>62.1</ele>
        <time>2021-10-16T10:04:23.000Z</time>
      </trkpt>
      <trkpt lat="44.60049" lon="-0.21211">
        <ele>62.5</ele>
        <time>2021-10-16T10:04:33.000Z</time>
      </trkpt>
      <trkpt lat="44.60048" lon="-0.21197">
        <ele>62.6</ele>
        <time>2021-10-16T10:04:43.000Z</time>
      </trkpt>
      <trkpt lat="44.60048" lon="-0.21184">
        <ele>62.7</ele>
        <time>2021-10-16T10:04:53.000Z</time>
      </trkpt>
      <trkpt lat="44.60046" lon="-0.21171">
        <ele>62.9</ele>
        <time>2021-10-16T10:05:02.000Z</time>
      </trkpt>
      <trkpt lat="44.60044" lon="-0.21159">
        <ele>63</ele>
        <time>2021-10-16T10:05:11.000Z</time>
      </trkpt>
      <trkpt lat="44.60042" lon="-0.21146">
        <ele>63.1</ele>
        <time>2021-10-16T10:05:20.000Z</time>
      </trkpt>
      <trkpt lat="44.60039" lon="-0.21132">
        <ele>63.2</ele>
        <time>2021-10-16T10:05:30.000Z</time>
      </trkpt>
      <trkpt lat="44.60037" lon="-0.21119">
        <ele>63.3</ele>
        <time>2021-10-16T10:05:40.000Z</time>
      </trkpt>
      <trkpt lat="44.60035" lon="-0.21106">
        <ele>63.8</ele>
        <time>2021-10-16T10:05:49.000Z</time>
      </trkpt>
      <trkpt lat="44.60034" lon="-0.21094">
        <ele>64.1</ele>
        <time>2021-10-16T10:05:58.000Z</time>
      </trkpt>
      <trkpt lat="44.60032" lon="-0.2108">
        <ele>64.4</ele>
        <time>2021-10-16T10:06:08.000Z</time>
      </trkpt>
      <trkpt lat="44.6003" lon="-0.21066">
        <ele>64.9</ele>
        <time>2021-10-16T10:06:18.000Z</time>
      </trkpt>
      <trkpt lat="44.60027" lon="-0.21053">
        <ele>65.7</ele>
        <time>2021-10-16T10:06:29.000Z</time>
      </trkpt>
      <trkpt lat="44.60025" lon="-0.2104">
        <ele>66</ele>
        <time>2021-10-16T10:06:38.000Z</time>
      </trkpt>
      <trkpt lat="44.60023" lon="-0.21028">
        <ele>66.7</ele>
        <time>2021-10-16T10:06:48.000Z</time>
      </trkpt>
      <trkpt lat="44.60019" lon="-0.21015">
        <ele>67.3</ele>
        <time>2021-10-16T10:06:58.000Z</time>
      </trkpt>
      <trkpt lat="44.60017" lon="-0.21002">
        <ele>67.9</ele>
        <time>2021-10-16T10:07:08.000Z</time>
      </trkpt>
      <trkpt lat="44.60015" lon="-0.2099">
        <ele>68.4</ele>
        <time>2021-10-16T10:07:17.000Z</time>
      </trkpt>
      <trkpt lat="44.60013" lon="-0.20976">
        <ele>69</ele>
        <time>2021-10-16T10:07:27.000Z</time>
      </trkpt>
      <trkpt lat="44.60009" lon="-0.20963">
        <ele>69.6</ele>
        <time>2021-10-16T10:07:37.000Z</time>
      </trkpt>
      <trkpt lat="44.60011" lon="-0.20951">
        <ele>70.1</ele>
        <time>2021-10-16T10:07:48.000Z</time>
      </trkpt>
      <trkpt lat="44.60013" lon="-0.20938">
        <ele>71.2</ele>
        <time>2021-10-16T10:07:58.000Z</time>
      </trkpt>
      <trkpt lat="44.6001" lon="-0.20925">
        <ele>71.7</ele>
        <time>2021-10-16T10:08:07.000Z</time>
      </trkpt>
      <trkpt lat="44.60007" lon="-0.20911">
        <ele>72</ele>
        <time>2021-10-16T10:08:17.000Z</time>
      </trkpt>
      <trkpt lat="44.60004" lon="-0.20899">
        <ele>72.5</ele>
        <time>2021-10-16T10:08:27.000Z</time>
      </trkpt>
      <trkpt lat="44.60001" lon="-0.20886">
        <ele>73.1</ele>
        <time>2021-10-16T10:08:37.000Z</time>
      </trkpt>
      <trkpt lat="44.59999" lon="-0.20872">
        <ele>73.7</ele>
        <time>2021-10-16T10:08:47.000Z</time>
      </trkpt>
      <trkpt lat="44.59997" lon="-0.20859">
        <ele>74.2</ele>
        <time>2021-10-16T10:08:57.000Z</time>
      </trkpt>
      <trkpt lat="44.59995" lon="-0.20846">
        <ele>74.6</ele>
        <time>2021-10-16T10:09:07.000Z</time>
      </trkpt>
      <trkpt lat="44.59992" lon="-0.20834">
        <ele>75.2</ele>
        <time>2021-10-16T10:09:16.000Z</time>
      </trkpt>
      <trkpt lat="44.59989" lon="-0.20822">
        <ele>75.9</ele>
        <time>2021-10-16T10:09:25.000Z</time>
      </trkpt>
      <trkpt lat="44.59987" lon="-0.20809">
        <ele>76.4</ele>
        <time>2021-10-16T10:09:35.000Z</time>
      </trkpt>
      <trkpt lat="44.59985" lon="-0.20796">
        <ele>77</ele>
        <time>2021-10-16T10:09:45.000Z</time>
      </trkpt>
      <trkpt lat="44.59982" lon="-0.20782">
        <ele>77.6</ele>
        <time>2021-10-16T10:09:56.000Z</time>
      </trkpt>
      <trkpt lat="44.59979" lon="-0.2077">
        <ele>78.3</ele>
        <time>2021-10-16T10:10:06.000Z</time>
      </trkpt>
      <trkpt lat="44.59978" lon="-0.20756">
        <ele>78.9</ele>
        <time>2021-10-16T10:10:16.000Z</time>
      </trkpt>
      <trkpt lat="44.59976" lon="-0.20743">
        <ele>79.2</ele>
        <time>2021-10-16T10:10:26.000Z</time>
      </trkpt>
      <trkpt lat="44.59973" lon="-0.2073">
        <ele>79.7</ele>
        <time>2021-10-16T10:10:36.000Z</time>
      </trkpt>
      <trkpt lat="44.59971" lon="-0.20717">
        <ele>79.9</ele>
        <time>2021-10-16T10:10:46.000Z</time>
      </trkpt>
      <trkpt lat="44.5997" lon="-0.20704">
        <ele>80.2</ele>
        <time>2021-10-16T10:10:56.000Z</time>
      </trkpt>
      <trkpt lat="44.59969" lon="-0.20691">
        <ele>80.4</ele>
        <time>2021-10-16T10:11:06.000Z</time>
      </trkpt>
      <trkpt lat="44.59969" lon="-0.20678">
        <ele>80.4</ele>
        <time>2021-10-16T10:11:16.000Z</time>
      </trkpt>
      <trkpt lat="44.59967" lon="-0.20664">
        <ele>80.7</ele>
        <time>2021-10-16T10:11:27.000Z</time>
      </trkpt>
      <trkpt lat="44.59964" lon="-0.20653">
        <ele>80.3</ele>
        <time>2021-10-16T10:12:02.000Z</time>
      </trkpt>
      <trkpt lat="44.59961" lon="-0.20665">
        <ele>80.1</ele>
        <time>2021-10-16T10:14:27.000Z</time>
      </trkpt>
      <trkpt lat="44.5996" lon="-0.20651">
        <ele>80.2</ele>
        <time>2021-10-16T10:15:29.000Z</time>
      </trkpt>
      <trkpt lat="44.59961" lon="-0.20638">
        <ele>80.4</ele>
        <time>2021-10-16T10:15:41.000Z</time>
      </trkpt>
      <trkpt lat="44.59961" lon="-0.20625">
        <ele>80.5</ele>
        <time>2021-10-16T10:15:51.000Z</time>
      </trkpt>
      <trkpt lat="44.59959" lon="-0.20612">
        <ele>80.7</ele>
        <time>2021-10-16T10:16:01.000Z</time>
      </trkpt>
      <trkpt lat="44.59961" lon="-0.20598">
        <ele>80.5</ele>
        <time>2021-10-16T10:16:09.000Z</time>
      </trkpt>
      <trkpt lat="44.59964" lon="-0.20585">
        <ele>80.6</ele>
        <time>2021-10-16T10:16:19.000Z</time>
      </trkpt>
      <trkpt lat="44.59966" lon="-0.20573">
        <ele>81.2</ele>
        <time>2021-10-16T10:16:32.000Z</time>
      </trkpt>
      <trkpt lat="44.59969" lon="-0.20561">
        <ele>81.7</ele>
        <time>2021-10-16T10:16:41.000Z</time>
      </trkpt>
      <trkpt lat="44.59972" lon="-0.20548">
        <ele>82.1</ele>
        <time>2021-10-16T10:16:53.000Z</time>
      </trkpt>
      <trkpt lat="44.59973" lon="-0.20534">
        <ele>82.5</ele>
        <time>2021-10-16T10:17:02.000Z</time>
      </trkpt>
      <trkpt lat="44.59972" lon="-0.2052">
        <ele>82.8</ele>
        <time>2021-10-16T10:17:10.000Z</time>
      </trkpt>
      <trkpt lat="44.59971" lon="-0.20507">
        <ele>83.3</ele>
        <time>2021-10-16T10:17:18.000Z</time>
      </trkpt>
      <trkpt lat="44.59972" lon="-0.20494">
        <ele>83.8</ele>
        <time>2021-10-16T10:17:29.000Z</time>
      </trkpt>
      <trkpt lat="44.59971" lon="-0.20482">
        <ele>84.3</ele>
        <time>2021-10-16T10:17:39.000Z</time>
      </trkpt>
      <trkpt lat="44.59972" lon="-0.20468">
        <ele>84.6</ele>
        <time>2021-10-16T10:17:46.000Z</time>
      </trkpt>
      <trkpt lat="44.5997" lon="-0.20456">
        <ele>85</ele>
        <time>2021-10-16T10:17:52.000Z</time>
      </trkpt>
      <trkpt lat="44.59969" lon="-0.20442">
        <ele>85.2</ele>
        <time>2021-10-16T10:18:02.000Z</time>
      </trkpt>
      <trkpt lat="44.59968" lon="-0.20428">
        <ele>85.7</ele>
        <time>2021-10-16T10:18:11.000Z</time>
      </trkpt>
      <trkpt lat="44.59966" lon="-0.20415">
        <ele>86.1</ele>
        <time>2021-10-16T10:18:22.000Z</time>
      </trkpt>
      <trkpt lat="44.59963" lon="-0.20401">
        <ele>86.7</ele>
        <time>2021-10-16T10:18:31.000Z</time>
      </trkpt>
      <trkpt lat="44.59962" lon="-0.20388">
        <ele>87.2</ele>
        <time>2021-10-16T10:18:38.000Z</time>
      </trkpt>
      <trkpt lat="44.59961" lon="-0.20376">
        <ele>87.4</ele>
        <time>2021-10-16T10:18:46.000Z</time>
      </trkpt>
      <trkpt lat="44.59959" lon="-0.20363">
        <ele>87.7</ele>
        <time>2021-10-16T10:18:55.000Z</time>
      </trkpt>
      <trkpt lat="44.59956" lon="-0.2035">
        <ele>88.3</ele>
        <time>2021-10-16T10:19:04.000Z</time>
      </trkpt>
      <trkpt lat="44.59953" lon="-0.20338">
        <ele>88.9</ele>
        <time>2021-10-16T10:19:12.000Z</time>
      </trkpt>
      <trkpt lat="44.5995" lon="-0.20324">
        <ele>89.4</ele>
        <time>2021-10-16T10:19:21.000Z</time>
      </trkpt>
      <trkpt lat="44.59947" lon="-0.20311">
        <ele>89.9</ele>
        <time>2021-10-16T10:19:31.000Z</time>
      </trkpt>
      <trkpt lat="44.59946" lon="-0.20297">
        <ele>90.4</ele>
        <time>2021-10-16T10:19:42.000Z</time>
      </trkpt>
      <trkpt lat="44.59943" lon="-0.20284">
        <ele>90.9</ele>
        <time>2021-10-16T10:19:53.000Z</time>
      </trkpt>
      <trkpt lat="44.5994" lon="-0.20271">
        <ele>91.4</ele>
        <time>2021-10-16T10:20:03.000Z</time>
      </trkpt>
      <trkpt lat="44.59939" lon="-0.20258">
        <ele>92</ele>
        <time>2021-10-16T10:20:12.000Z</time>
      </trkpt>
      <trkpt lat="44.59936" lon="-0.20246">
        <ele>92.8</ele>
        <time>2021-10-16T10:20:21.000Z</time>
      </trkpt>
      <trkpt lat="44.59933" lon="-0.20234">
        <ele>93.4</ele>
        <time>2021-10-16T10:20:30.000Z</time>
      </trkpt>
      <trkpt lat="44.5993" lon="-0.20221">
        <ele>93.9</ele>
        <time>2021-10-16T10:20:40.000Z</time>
      </trkpt>
      <trkpt lat="44.59927" lon="-0.20208">
        <ele>94.3</ele>
        <time>2021-10-16T10:20:49.000Z</time>
      </trkpt>
      <trkpt lat="44.59924" lon="-0.20195">
        <ele>94.7</ele>
        <time>2021-10-16T10:20:58.000Z</time>
      </trkpt>
      <trkpt lat="44.59919" lon="-0.20184">
        <ele>95.3</ele>
        <time>2021-10-16T10:21:07.000Z</time>
      </trkpt>
      <trkpt lat="44.59915" lon="-0.20172">
        <ele>95.7</ele>
        <time>2021-10-16T10:21:16.000Z</time>
      </trkpt>
      <trkpt lat="44.5991" lon="-0.2016">
        <ele>96.4</ele>
        <time>2021-10-16T10:21:26.000Z</time>
      </trkpt>
      <trkpt lat="44.59905" lon="-0.20148">
        <ele>97</ele>
        <time>2021-10-16T10:21:35.000Z</time>
      </trkpt>
      <trkpt lat="44.599" lon="-0.20136">
        <ele>97.5</ele>
        <time>2021-10-16T10:21:45.000Z</time>
      </trkpt>
      <trkpt lat="44.59895" lon="-0.20124">
        <ele>98.1</ele>
        <time>2021-10-16T10:21:55.000Z</time>
      </trkpt>
      <trkpt lat="44.5989" lon="-0.20113">
        <ele>98.7</ele>
        <time>2021-10-16T10:22:04.000Z</time>
      </trkpt>
      <trkpt lat="44.59885" lon="-0.20102">
        <ele>99.1</ele>
        <time>2021-10-16T10:22:13.000Z</time>
      </trkpt>
      <trkpt lat="44.5988" lon="-0.20091">
        <ele>99.5</ele>
        <time>2021-10-16T10:22:23.000Z</time>
      </trkpt>
      <trkpt lat="44.59875" lon="-0.20078">
        <ele>100.1</ele>
        <time>2021-10-16T10:22:33.000Z</time>
      </trkpt>
      <trkpt lat="44.59872" lon="-0.20066">
        <ele>100.7</ele>
        <time>2021-10-16T10:22:43.000Z</time>
      </trkpt>
      <trkpt lat="44.59867" lon="-0.20055">
        <ele>101.1</ele>
        <time>2021-10-16T10:22:52.000Z</time>
      </trkpt>
      <trkpt lat="44.59863" lon="-0.20043">
        <ele>101.6</ele>
        <time>2021-10-16T10:23:01.000Z</time>
      </trkpt>
      <trkpt lat="44.59859" lon="-0.20032">
        <ele>101.8</ele>
        <time>2021-10-16T10:23:10.000Z</time>
      </trkpt>
      <trkpt lat="44.59855" lon="-0.2002">
        <ele>102.6</ele>
        <time>2021-10-16T10:23:19.000Z</time>
      </trkpt>
      <trkpt lat="44.59851" lon="-0.20008">
        <ele>103</ele>
        <time>2021-10-16T10:23:28.000Z</time>
      </trkpt>
      <trkpt lat="44.59847" lon="-0.19996">
        <ele>103.5</ele>
        <time>2021-10-16T10:23:38.000Z</time>
      </trkpt>
      <trkpt lat="44.59843" lon="-0.19984">
        <ele>104</ele>
        <time>2021-10-16T10:23:47.000Z</time>
      </trkpt>
      <trkpt lat="44.59839" lon="-0.19971">
        <ele>104.6</ele>
        <time>2021-10-16T10:23:57.000Z</time>
      </trkpt>
      <trkpt lat="44.59835" lon="-0.19959">
        <ele>105.1</ele>
        <time>2021-10-16T10:24:06.000Z</time>
      </trkpt>
      <trkpt lat="44.59829" lon="-0.19949">
        <ele>105.7</ele>
        <time>2021-10-16T10:24:16.000Z</time>
      </trkpt>
      <trkpt lat="44.5982" lon="-0.19948">
        <ele>106.3</ele>
        <time>2021-10-16T10:24:35.000Z</time>
      </trkpt>
      <trkpt lat="44.59812" lon="-0.19954">
        <ele>105.9</ele>
        <time>2021-10-16T10:24:45.000Z</time>
      </trkpt>
      <trkpt lat="44.59804" lon="-0.19962">
        <ele>106</ele>
        <time>2021-10-16T10:24:55.000Z</time>
      </trkpt>
      <trkpt lat="44.59796" lon="-0.19968">
        <ele>105.8</ele>
        <time>2021-10-16T10:25:04.000Z</time>
      </trkpt>
      <trkpt lat="44.59788" lon="-0.19974">
        <ele>105.7</ele>
        <time>2021-10-16T10:25:13.000Z</time>
      </trkpt>
      <trkpt lat="44.59779" lon="-0.19979">
        <ele>105.6</ele>
        <time>2021-10-16T10:25:22.000Z</time>
      </trkpt>
      <trkpt lat="44.59771" lon="-0.19986">
        <ele>105.7</ele>
        <time>2021-10-16T10:25:31.000Z</time>
      </trkpt>
      <trkpt lat="44.59762" lon="-0.19989">
        <ele>105.7</ele>
        <time>2021-10-16T10:25:51.000Z</time>
      </trkpt>
      <trkpt lat="44.59752" lon="-0.19989">
        <ele>105.4</ele>
        <time>2021-10-16T10:26:01.000Z</time>
      </trkpt>
      <trkpt lat="44.59743" lon="-0.19987">
        <ele>104.4</ele>
        <time>2021-10-16T10:26:10.000Z</time>
      </trkpt>
      <trkpt lat="44.59734" lon="-0.19985">
        <ele>104.1</ele>
        <time>2021-10-16T10:26:18.000Z</time>
      </trkpt>
      <trkpt lat="44.59724" lon="-0.19983">
        <ele>103.2</ele>
        <time>2021-10-16T10:26:28.000Z</time>
      </trkpt>
      <trkpt lat="44.59715" lon="-0.19981">
        <ele>102.4</ele>
        <time>2021-10-16T10:26:39.000Z</time>
      </trkpt>
      <trkpt lat="44.59706" lon="-0.19977">
        <ele>101.4</ele>
        <time>2021-10-16T10:26:49.000Z</time>
      </trkpt>
      <trkpt lat="44.59698" lon="-0.1997">
        <ele>100.4</ele>
        <time>2021-10-16T10:27:00.000Z</time>
      </trkpt>
      <trkpt lat="44.59689" lon="-0.19966">
        <ele>99.5</ele>
        <time>2021-10-16T10:27:09.000Z</time>
      </trkpt>
      <trkpt lat="44.5968" lon="-0.19962">
        <ele>98.7</ele>
        <time>2021-10-16T10:27:17.000Z</time>
      </trkpt>
      <trkpt lat="44.59671" lon="-0.19959">
        <ele>97.9</ele>
        <time>2021-10-16T10:27:26.000Z</time>
      </trkpt>
      <trkpt lat="44.59662" lon="-0.19957">
        <ele>97.3</ele>
        <time>2021-10-16T10:27:35.000Z</time>
      </trkpt>
      <trkpt lat="44.59652" lon="-0.19954">
        <ele>96.8</ele>
        <time>2021-10-16T10:27:44.000Z</time>
      </trkpt>
      <trkpt lat="44.59643" lon="-0.19951">
        <ele>96.4</ele>
        <time>2021-10-16T10:27:53.000Z</time>
      </trkpt>
      <trkpt lat="44.59634" lon="-0.19946">
        <ele>95.4</ele>
        <time>2021-10-16T10:28:04.000Z</time>
      </trkpt>
      <trkpt lat="44.59627" lon="-0.19937">
        <ele>94.7</ele>
        <time>2021-10-16T10:28:13.000Z</time>
      </trkpt>
      <trkpt lat="44.59621" lon="-0.19928">
        <ele>94.1</ele>
        <time>2021-10-16T10:28:22.000Z</time>
      </trkpt>
      <trkpt lat="44.59618" lon="-0.19915">
        <ele>93.4</ele>
        <time>2021-10-16T10:28:32.000Z</time>
      </trkpt>
      <trkpt lat="44.59615" lon="-0.19902">
        <ele>92.7</ele>
        <time>2021-10-16T10:28:42.000Z</time>
      </trkpt>
      <trkpt lat="44.59611" lon="-0.1989">
        <ele>92.1</ele>
        <time>2021-10-16T10:28:51.000Z</time>
      </trkpt>
      <trkpt lat="44.59611" lon="-0.19875">
        <ele>91.3</ele>
        <time>2021-10-16T10:29:01.000Z</time>
      </trkpt>
      <trkpt lat="44.59609" lon="-0.19862">
        <ele>90.7</ele>
        <time>2021-10-16T10:29:11.000Z</time>
      </trkpt>
      <trkpt lat="44.5961" lon="-0.19849">
        <ele>90.5</ele>
        <time>2021-10-16T10:29:21.000Z</time>
      </trkpt>
      <trkpt lat="44.59609" lon="-0.19835">
        <ele>90.2</ele>
        <time>2021-10-16T10:29:30.000Z</time>
      </trkpt>
      <trkpt lat="44.5961" lon="-0.19822">
        <ele>89.9</ele>
        <time>2021-10-16T10:29:39.000Z</time>
      </trkpt>
      <trkpt lat="44.59609" lon="-0.19809">
        <ele>89.6</ele>
        <time>2021-10-16T10:29:48.000Z</time>
      </trkpt>
      <trkpt lat="44.59608" lon="-0.19797">
        <ele>89.4</ele>
        <time>2021-10-16T10:29:56.000Z</time>
      </trkpt>
      <trkpt lat="44.59606" lon="-0.19784">
        <ele>88.7</ele>
        <time>2021-10-16T10:30:07.000Z</time>
      </trkpt>
      <trkpt lat="44.59604" lon="-0.19771">
        <ele>88.1</ele>
        <time>2021-10-16T10:30:18.000Z</time>
      </trkpt>
      <trkpt lat="44.59603" lon="-0.19757">
        <ele>87.9</ele>
        <time>2021-10-16T10:30:28.000Z</time>
      </trkpt>
      <trkpt lat="44.59602" lon="-0.19743">
        <ele>87.4</ele>
        <time>2021-10-16T10:30:36.000Z</time>
      </trkpt>
      <trkpt lat="44.59601" lon="-0.1973">
        <ele>87.2</ele>
        <time>2021-10-16T10:30:45.000Z</time>
      </trkpt>
      <trkpt lat="44.59601" lon="-0.19716">
        <ele>86.5</ele>
        <time>2021-10-16T10:30:54.000Z</time>
      </trkpt>
      <trkpt lat="44.59601" lon="-0.19702">
        <ele>86.2</ele>
        <time>2021-10-16T10:31:03.000Z</time>
      </trkpt>
      <trkpt lat="44.59597" lon="-0.19691">
        <ele>85.8</ele>
        <time>2021-10-16T10:31:11.000Z</time>
      </trkpt>
      <trkpt lat="44.59591" lon="-0.1968">
        <ele>85.1</ele>
        <time>2021-10-16T10:31:19.000Z</time>
      </trkpt>
      <trkpt lat="44.59584" lon="-0.19671">
        <ele>84.9</ele>
        <time>2021-10-16T10:31:28.000Z</time>
      </trkpt>
      <trkpt lat="44.59579" lon="-0.19659">
        <ele>84.8</ele>
        <time>2021-10-16T10:31:39.000Z</time>
      </trkpt>
      <trkpt lat="44.59573" lon="-0.19649">
        <ele>84.2</ele>
        <time>2021-10-16T10:31:49.000Z</time>
      </trkpt>
      <trkpt lat="44.59567" lon="-0.19639">
        <ele>83.4</ele>
        <time>2021-10-16T10:32:02.000Z</time>
      </trkpt>
      <trkpt lat="44.5956" lon="-0.19632">
        <ele>80.6</ele>
        <time>2021-10-16T10:39:41.000Z</time>
      </trkpt>
      <trkpt lat="44.59554" lon="-0.19621">
        <ele>80.2</ele>
        <time>2021-10-16T10:39:56.000Z</time>
      </trkpt>
      <trkpt lat="44.59563" lon="-0.19625">
        <ele>80.3</ele>
        <time>2021-10-16T10:40:01.000Z</time>
      </trkpt>
      <trkpt lat="44.59567" lon="-0.19636">
        <ele>80.3</ele>
        <time>2021-10-16T10:41:37.000Z</time>
      </trkpt>
      <trkpt lat="44.59576" lon="-0.19644">
        <ele>80.2</ele>
        <time>2021-10-16T10:41:49.000Z</time>
      </trkpt>
      <trkpt lat="44.59585" lon="-0.19638">
        <ele>80.1</ele>
        <time>2021-10-16T10:42:57.000Z</time>
      </trkpt>
      <trkpt lat="44.59576" lon="-0.19634">
        <ele>80.2</ele>
        <time>2021-10-16T10:43:35.000Z</time>
      </trkpt>
      <trkpt lat="44.59567" lon="-0.19632">
        <ele>80.4</ele>
        <time>2021-10-16T10:45:18.000Z</time>
      </trkpt>
      <trkpt lat="44.59555" lon="-0.1963">
        <ele>80</ele>
        <time>2021-10-16T10:46:02.000Z</time>
      </trkpt>
      <trkpt lat="44.59557" lon="-0.19643">
        <ele>80.6</ele>
        <time>2021-10-16T10:46:42.000Z</time>
      </trkpt>
      <trkpt lat="44.59562" lon="-0.19659">
        <ele>80</ele>
        <time>2021-10-16T10:46:51.000Z</time>
      </trkpt>
      <trkpt lat="44.59558" lon="-0.19647">
        <ele>80.9</ele>
        <time>2021-10-16T10:47:19.000Z</time>
      </trkpt>
      <trkpt lat="44.59564" lon="-0.19637">
        <ele>81</ele>
        <time>2021-10-16T10:47:55.000Z</time>
      </trkpt>
      <trkpt lat="44.5957" lon="-0.19625">
        <ele>80.4</ele>
        <time>2021-10-16T10:55:40.000Z</time>
      </trkpt>
      <trkpt lat="44.59577" lon="-0.19633">
        <ele>80.5</ele>
        <time>2021-10-16T10:57:19.000Z</time>
      </trkpt>
      <trkpt lat="44.59568" lon="-0.19636">
        <ele>80.5</ele>
        <time>2021-10-16T10:58:03.000Z</time>
      </trkpt>
      <trkpt lat="44.59559" lon="-0.19642">
        <ele>81</ele>
        <time>2021-10-16T11:00:10.000Z</time>
      </trkpt>
      <trkpt lat="44.59558" lon="-0.19629">
        <ele>80.8</ele>
        <time>2021-10-16T11:00:45.000Z</time>
      </trkpt>
      <trkpt lat="44.59567" lon="-0.19633">
        <ele>81</ele>
        <time>2021-10-16T11:03:35.000Z</time>
      </trkpt>
      <trkpt lat="44.59576" lon="-0.1963">
        <ele>80.8</ele>
        <time>2021-10-16T11:15:36.000Z</time>
      </trkpt>
      <trkpt lat="44.59567" lon="-0.19631">
        <ele>80.8</ele>
        <time>2021-10-16T11:18:10.000Z</time>
      </trkpt>
      <trkpt lat="44.59564" lon="-0.19643">
        <ele>80.9</ele>
        <time>2021-10-16T11:18:20.000Z</time>
      </trkpt>
      <trkpt lat="44.59564" lon="-0.19656">
        <ele>81.1</ele>
        <time>2021-10-16T11:19:08.000Z</time>
      </trkpt>
      <trkpt lat="44.59566" lon="-0.19644">
        <ele>81</ele>
        <time>2021-10-16T11:19:34.000Z</time>
      </trkpt>
      <trkpt lat="44.59565" lon="-0.19629">
        <ele>81</ele>
        <time>2021-10-16T11:20:47.000Z</time>
      </trkpt>
      <trkpt lat="44.59566" lon="-0.19643">
        <ele>81</ele>
        <time>2021-10-16T11:21:00.000Z</time>
      </trkpt>
      <trkpt lat="44.59565" lon="-0.19658">
        <ele>81</ele>
        <time>2021-10-16T11:21:03.000Z</time>
      </trkpt>
      <trkpt lat="44.59568" lon="-0.19646">
        <ele>81.4</ele>
        <time>2021-10-16T11:21:25.000Z</time>
      </trkpt>
      <trkpt lat="44.59569" lon="-0.19633">
        <ele>81.6</ele>
        <time>2021-10-16T11:22:12.000Z</time>
      </trkpt>
      <trkpt lat="44.59563" lon="-0.19643">
        <ele>81.5</ele>
        <time>2021-10-16T11:22:40.000Z</time>
      </trkpt>
      <trkpt lat="44.59568" lon="-0.19632">
        <ele>81.7</ele>
        <time>2021-10-16T11:23:56.000Z</time>
      </trkpt>
      <trkpt lat="44.59568" lon="-0.19644">
        <ele>81.9</ele>
        <time>2021-10-16T11:24:32.000Z</time>
      </trkpt>
      <trkpt lat="44.59572" lon="-0.19657">
        <ele>82.1</ele>
        <time>2021-10-16T11:24:44.000Z</time>
      </trkpt>
      <trkpt lat="44.59575" lon="-0.19644">
        <ele>81.9</ele>
        <time>2021-10-16T11:25:50.000Z</time>
      </trkpt>
      <trkpt lat="44.59566" lon="-0.1964">
        <ele>82.2</ele>
        <time>2021-10-16T11:26:56.000Z</time>
      </trkpt>
      <trkpt lat="44.59574" lon="-0.19632">
        <ele>82.3</ele>
        <time>2021-10-16T11:27:19.000Z</time>
      </trkpt>
      <trkpt lat="44.59565" lon="-0.19637">
        <ele>82.4</ele>
        <time>2021-10-16T11:28:14.000Z</time>
      </trkpt>
      <trkpt lat="44.59568" lon="-0.19625">
        <ele>82.9</ele>
        <time>2021-10-16T11:37:57.000Z</time>
      </trkpt>
      <trkpt lat="44.59566" lon="-0.19638">
        <ele>82.9</ele>
        <time>2021-10-16T11:39:36.000Z</time>
      </trkpt>
      <trkpt lat="44.59561" lon="-0.19627">
        <ele>84.3</ele>
        <time>2021-10-16T11:54:57.000Z</time>
      </trkpt>
      <trkpt lat="44.59564" lon="-0.1964">
        <ele>84.8</ele>
        <time>2021-10-16T11:58:16.000Z</time>
      </trkpt>
      <trkpt lat="44.59572" lon="-0.19646">
        <ele>84.9</ele>
        <time>2021-10-16T11:58:28.000Z</time>
      </trkpt>
      <trkpt lat="44.59567" lon="-0.19635">
        <ele>84.7</ele>
        <time>2021-10-16T11:59:40.000Z</time>
      </trkpt>
      <trkpt lat="44.59559" lon="-0.1963">
        <ele>85.1</ele>
        <time>2021-10-16T12:02:15.000Z</time>
      </trkpt>
      <trkpt lat="44.59563" lon="-0.19641">
        <ele>85.4</ele>
        <time>2021-10-16T12:07:54.000Z</time>
      </trkpt>
      <trkpt lat="44.59567" lon="-0.1963">
        <ele>85.2</ele>
        <time>2021-10-16T12:13:57.000Z</time>
      </trkpt>
      <trkpt lat="44.59566" lon="-0.19643">
        <ele>85.5</ele>
        <time>2021-10-16T12:15:16.000Z</time>
      </trkpt>
      <trkpt lat="44.59569" lon="-0.19631">
        <ele>85.7</ele>
        <time>2021-10-16T12:17:59.000Z</time>
      </trkpt>
      <trkpt lat="44.59561" lon="-0.19627">
        <ele>85.9</ele>
        <time>2021-10-16T12:19:07.000Z</time>
      </trkpt>
      <trkpt lat="44.59554" lon="-0.19618">
        <ele>85.5</ele>
        <time>2021-10-16T12:19:20.000Z</time>
      </trkpt>
      <trkpt lat="44.59548" lon="-0.19607">
        <ele>84.5</ele>
        <time>2021-10-16T12:19:33.000Z</time>
      </trkpt>
      <trkpt lat="44.59545" lon="-0.19595">
        <ele>84</ele>
        <time>2021-10-16T12:19:43.000Z</time>
      </trkpt>
      <trkpt lat="44.59545" lon="-0.19582">
        <ele>83.4</ele>
        <time>2021-10-16T12:19:52.000Z</time>
      </trkpt>
      <trkpt lat="44.5954" lon="-0.1957">
        <ele>82.7</ele>
        <time>2021-10-16T12:20:02.000Z</time>
      </trkpt>
      <trkpt lat="44.59536" lon="-0.19557">
        <ele>81.9</ele>
        <time>2021-10-16T12:20:12.000Z</time>
      </trkpt>
      <trkpt lat="44.59532" lon="-0.19546">
        <ele>81.4</ele>
        <time>2021-10-16T12:20:21.000Z</time>
      </trkpt>
      <trkpt lat="44.59529" lon="-0.19533">
        <ele>80.9</ele>
        <time>2021-10-16T12:20:30.000Z</time>
      </trkpt>
      <trkpt lat="44.59529" lon="-0.1952">
        <ele>80.3</ele>
        <time>2021-10-16T12:20:39.000Z</time>
      </trkpt>
      <trkpt lat="44.59526" lon="-0.19507">
        <ele>79.5</ele>
        <time>2021-10-16T12:20:50.000Z</time>
      </trkpt>
      <trkpt lat="44.59526" lon="-0.19494">
        <ele>79</ele>
        <time>2021-10-16T12:20:58.000Z</time>
      </trkpt>
      <trkpt lat="44.59523" lon="-0.19481">
        <ele>78</ele>
        <time>2021-10-16T12:21:07.000Z</time>
      </trkpt>
      <trkpt lat="44.5952" lon="-0.19468">
        <ele>77.4</ele>
        <time>2021-10-16T12:21:16.000Z</time>
      </trkpt>
      <trkpt lat="44.59518" lon="-0.19456">
        <ele>76.8</ele>
        <time>2021-10-16T12:21:26.000Z</time>
      </trkpt>
      <trkpt lat="44.59517" lon="-0.19443">
        <ele>76.2</ele>
        <time>2021-10-16T12:21:34.000Z</time>
      </trkpt>
      <trkpt lat="44.59513" lon="-0.19432">
        <ele>75.5</ele>
        <time>2021-10-16T12:21:44.000Z</time>
      </trkpt>
      <trkpt lat="44.59511" lon="-0.19419">
        <ele>74.9</ele>
        <time>2021-10-16T12:21:52.000Z</time>
      </trkpt>
      <trkpt lat="44.59508" lon="-0.19406">
        <ele>74.2</ele>
        <time>2021-10-16T12:22:01.000Z</time>
      </trkpt>
      <trkpt lat="44.59505" lon="-0.19394">
        <ele>73.8</ele>
        <time>2021-10-16T12:22:09.000Z</time>
      </trkpt>
      <trkpt lat="44.59503" lon="-0.1938">
        <ele>72.9</ele>
        <time>2021-10-16T12:22:19.000Z</time>
      </trkpt>
      <trkpt lat="44.595" lon="-0.19367">
        <ele>72.4</ele>
        <time>2021-10-16T12:22:27.000Z</time>
      </trkpt>
      <trkpt lat="44.59498" lon="-0.19354">
        <ele>71.7</ele>
        <time>2021-10-16T12:22:37.000Z</time>
      </trkpt>
      <trkpt lat="44.59495" lon="-0.19341">
        <ele>71.2</ele>
        <time>2021-10-16T12:22:46.000Z</time>
      </trkpt>
      <trkpt lat="44.59492" lon="-0.19328">
        <ele>71</ele>
        <time>2021-10-16T12:22:55.000Z</time>
      </trkpt>
      <trkpt lat="44.5949" lon="-0.19315">
        <ele>70.6</ele>
        <time>2021-10-16T12:23:04.000Z</time>
      </trkpt>
      <trkpt lat="44.59487" lon="-0.19302">
        <ele>70</ele>
        <time>2021-10-16T12:23:13.000Z</time>
      </trkpt>
      <trkpt lat="44.59484" lon="-0.19289">
        <ele>69.6</ele>
        <time>2021-10-16T12:23:22.000Z</time>
      </trkpt>
      <trkpt lat="44.59482" lon="-0.19276">
        <ele>68.9</ele>
        <time>2021-10-16T12:23:31.000Z</time>
      </trkpt>
      <trkpt lat="44.59479" lon="-0.19264">
        <ele>68.4</ele>
        <time>2021-10-16T12:23:39.000Z</time>
      </trkpt>
      <trkpt lat="44.59478" lon="-0.1925">
        <ele>68</ele>
        <time>2021-10-16T12:23:48.000Z</time>
      </trkpt>
      <trkpt lat="44.59474" lon="-0.19237">
        <ele>67.4</ele>
        <time>2021-10-16T12:23:57.000Z</time>
      </trkpt>
      <trkpt lat="44.59473" lon="-0.19224">
        <ele>67</ele>
        <time>2021-10-16T12:24:06.000Z</time>
      </trkpt>
      <trkpt lat="44.59471" lon="-0.19212">
        <ele>66.5</ele>
        <time>2021-10-16T12:24:14.000Z</time>
      </trkpt>
      <trkpt lat="44.59468" lon="-0.19198">
        <ele>66</ele>
        <time>2021-10-16T12:24:23.000Z</time>
      </trkpt>
      <trkpt lat="44.59466" lon="-0.19186">
        <ele>65.3</ele>
        <time>2021-10-16T12:24:32.000Z</time>
      </trkpt>
      <trkpt lat="44.59464" lon="-0.19172">
        <ele>64.3</ele>
        <time>2021-10-16T12:24:41.000Z</time>
      </trkpt>
      <trkpt lat="44.59461" lon="-0.19159">
        <ele>63.6</ele>
        <time>2021-10-16T12:24:49.000Z</time>
      </trkpt>
      <trkpt lat="44.59459" lon="-0.19146">
        <ele>62.7</ele>
        <time>2021-10-16T12:24:59.000Z</time>
      </trkpt>
      <trkpt lat="44.59455" lon="-0.19134">
        <ele>62.3</ele>
        <time>2021-10-16T12:25:08.000Z</time>
      </trkpt>
      <trkpt lat="44.5945" lon="-0.19122">
        <ele>61.3</ele>
        <time>2021-10-16T12:25:17.000Z</time>
      </trkpt>
      <trkpt lat="44.59445" lon="-0.19111">
        <ele>60.4</ele>
        <time>2021-10-16T12:25:26.000Z</time>
      </trkpt>
      <trkpt lat="44.5944" lon="-0.191">
        <ele>59.9</ele>
        <time>2021-10-16T12:25:35.000Z</time>
      </trkpt>
      <trkpt lat="44.59435" lon="-0.19089">
        <ele>59.4</ele>
        <time>2021-10-16T12:25:44.000Z</time>
      </trkpt>
      <trkpt lat="44.59431" lon="-0.19077">
        <ele>58.7</ele>
        <time>2021-10-16T12:25:52.000Z</time>
      </trkpt>
      <trkpt lat="44.59426" lon="-0.19067">
        <ele>58.2</ele>
        <time>2021-10-16T12:26:02.000Z</time>
      </trkpt>
      <trkpt lat="44.59421" lon="-0.19054">
        <ele>57.1</ele>
        <time>2021-10-16T12:26:12.000Z</time>
      </trkpt>
      <trkpt lat="44.59415" lon="-0.19044">
        <ele>56.5</ele>
        <time>2021-10-16T12:26:19.000Z</time>
      </trkpt>
      <trkpt lat="44.59412" lon="-0.19031">
        <ele>56</ele>
        <time>2021-10-16T12:26:29.000Z</time>
      </trkpt>
      <trkpt lat="44.59409" lon="-0.19018">
        <ele>55.1</ele>
        <time>2021-10-16T12:26:39.000Z</time>
      </trkpt>
      <trkpt lat="44.59407" lon="-0.19005">
        <ele>54.2</ele>
        <time>2021-10-16T12:26:47.000Z</time>
      </trkpt>
      <trkpt lat="44.59402" lon="-0.18994">
        <ele>53.8</ele>
        <time>2021-10-16T12:26:55.000Z</time>
      </trkpt>
      <trkpt lat="44.59399" lon="-0.18981">
        <ele>52.9</ele>
        <time>2021-10-16T12:27:03.000Z</time>
      </trkpt>
      <trkpt lat="44.59398" lon="-0.18967">
        <ele>52.3</ele>
        <time>2021-10-16T12:27:11.000Z</time>
      </trkpt>
      <trkpt lat="44.59396" lon="-0.18954">
        <ele>51.6</ele>
        <time>2021-10-16T12:27:20.000Z</time>
      </trkpt>
      <trkpt lat="44.59392" lon="-0.18943">
        <ele>50.9</ele>
        <time>2021-10-16T12:27:27.000Z</time>
      </trkpt>
      <trkpt lat="44.59384" lon="-0.18935">
        <ele>50.4</ele>
        <time>2021-10-16T12:27:34.000Z</time>
      </trkpt>
      <trkpt lat="44.59381" lon="-0.18922">
        <ele>49.8</ele>
        <time>2021-10-16T12:27:44.000Z</time>
      </trkpt>
      <trkpt lat="44.59372" lon="-0.18914">
        <ele>49.5</ele>
        <time>2021-10-16T12:27:50.000Z</time>
      </trkpt>
      <trkpt lat="44.59369" lon="-0.18901">
        <ele>49.1</ele>
        <time>2021-10-16T12:27:59.000Z</time>
      </trkpt>
      <trkpt lat="44.59364" lon="-0.1889">
        <ele>48.8</ele>
        <time>2021-10-16T12:28:06.000Z</time>
      </trkpt>
      <trkpt lat="44.59361" lon="-0.18877">
        <ele>48.8</ele>
        <time>2021-10-16T12:28:16.000Z</time>
      </trkpt>
      <trkpt lat="44.59356" lon="-0.18866">
        <ele>48.8</ele>
        <time>2021-10-16T12:28:23.000Z</time>
      </trkpt>
      <trkpt lat="44.59351" lon="-0.18855">
        <ele>48.5</ele>
        <time>2021-10-16T12:28:31.000Z</time>
      </trkpt>
      <trkpt lat="44.59346" lon="-0.18844">
        <ele>48.6</ele>
        <time>2021-10-16T12:28:39.000Z</time>
      </trkpt>
      <trkpt lat="44.5934" lon="-0.18833">
        <ele>48.3</ele>
        <time>2021-10-16T12:28:47.000Z</time>
      </trkpt>
      <trkpt lat="44.59336" lon="-0.1882">
        <ele>48.2</ele>
        <time>2021-10-16T12:28:56.000Z</time>
      </trkpt>
      <trkpt lat="44.59332" lon="-0.18808">
        <ele>48.2</ele>
        <time>2021-10-16T12:29:05.000Z</time>
      </trkpt>
      <trkpt lat="44.59329" lon="-0.18796">
        <ele>47.9</ele>
        <time>2021-10-16T12:29:13.000Z</time>
      </trkpt>
      <trkpt lat="44.59331" lon="-0.18783">
        <ele>47.7</ele>
        <time>2021-10-16T12:29:20.000Z</time>
      </trkpt>
      <trkpt lat="44.5933" lon="-0.1877">
        <ele>47.4</ele>
        <time>2021-10-16T12:29:30.000Z</time>
      </trkpt>
      <trkpt lat="44.59322" lon="-0.1876">
        <ele>47.2</ele>
        <time>2021-10-16T12:29:39.000Z</time>
      </trkpt>
      <trkpt lat="44.5932" lon="-0.18745">
        <ele>47.4</ele>
        <time>2021-10-16T12:29:47.000Z</time>
      </trkpt>
      <trkpt lat="44.5932" lon="-0.18732">
        <ele>47.5</ele>
        <time>2021-10-16T12:29:55.000Z</time>
      </trkpt>
      <trkpt lat="44.59319" lon="-0.18718">
        <ele>47.4</ele>
        <time>2021-10-16T12:30:02.000Z</time>
      </trkpt>
      <trkpt lat="44.59315" lon="-0.18705">
        <ele>47</ele>
        <time>2021-10-16T12:30:10.000Z</time>
      </trkpt>
      <trkpt lat="44.5931" lon="-0.18693">
        <ele>46.7</ele>
        <time>2021-10-16T12:30:17.000Z</time>
      </trkpt>
      <trkpt lat="44.59307" lon="-0.18679">
        <ele>46.9</ele>
        <time>2021-10-16T12:30:25.000Z</time>
      </trkpt>
      <trkpt lat="44.59301" lon="-0.18667">
        <ele>46.9</ele>
        <time>2021-10-16T12:30:34.000Z</time>
      </trkpt>
      <trkpt lat="44.59298" lon="-0.18653">
        <ele>46.9</ele>
        <time>2021-10-16T12:30:42.000Z</time>
      </trkpt>
      <trkpt lat="44.59297" lon="-0.18641">
        <ele>47</ele>
        <time>2021-10-16T12:30:51.000Z</time>
      </trkpt>
      <trkpt lat="44.59294" lon="-0.18627">
        <ele>47.4</ele>
        <time>2021-10-16T12:31:01.000Z</time>
      </trkpt>
      <trkpt lat="44.5929" lon="-0.18615">
        <ele>47.5</ele>
        <time>2021-10-16T12:31:09.000Z</time>
      </trkpt>
      <trkpt lat="44.59285" lon="-0.18604">
        <ele>47.4</ele>
        <time>2021-10-16T12:31:16.000Z</time>
      </trkpt>
      <trkpt lat="44.59281" lon="-0.18592">
        <ele>47.1</ele>
        <time>2021-10-16T12:31:25.000Z</time>
      </trkpt>
      <trkpt lat="44.59275" lon="-0.18582">
        <ele>46.7</ele>
        <time>2021-10-16T12:31:32.000Z</time>
      </trkpt>
      <trkpt lat="44.5927" lon="-0.18571">
        <ele>46.3</ele>
        <time>2021-10-16T12:31:39.000Z</time>
      </trkpt>
      <trkpt lat="44.59267" lon="-0.18558">
        <ele>45.8</ele>
        <time>2021-10-16T12:31:47.000Z</time>
      </trkpt>
      <trkpt lat="44.59264" lon="-0.18546">
        <ele>45.3</ele>
        <time>2021-10-16T12:31:56.000Z</time>
      </trkpt>
      <trkpt lat="44.59261" lon="-0.18533">
        <ele>45.1</ele>
        <time>2021-10-16T12:32:04.000Z</time>
      </trkpt>
      <trkpt lat="44.5926" lon="-0.1852">
        <ele>44.9</ele>
        <time>2021-10-16T12:32:13.000Z</time>
      </trkpt>
      <trkpt lat="44.59258" lon="-0.18507">
        <ele>44.7</ele>
        <time>2021-10-16T12:32:21.000Z</time>
      </trkpt>
      <trkpt lat="44.59255" lon="-0.18495">
        <ele>44.6</ele>
        <time>2021-10-16T12:32:27.000Z</time>
      </trkpt>
      <trkpt lat="44.59252" lon="-0.18482">
        <ele>44.7</ele>
        <time>2021-10-16T12:32:36.000Z</time>
      </trkpt>
      <trkpt lat="44.59251" lon="-0.18469">
        <ele>44.5</ele>
        <time>2021-10-16T12:32:44.000Z</time>
      </trkpt>
      <trkpt lat="44.5925" lon="-0.18456">
        <ele>44.5</ele>
        <time>2021-10-16T12:32:53.000Z</time>
      </trkpt>
      <trkpt lat="44.59249" lon="-0.18442">
        <ele>44.4</ele>
        <time>2021-10-16T12:33:01.000Z</time>
      </trkpt>
      <trkpt lat="44.59244" lon="-0.1843">
        <ele>44.4</ele>
        <time>2021-10-16T12:33:09.000Z</time>
      </trkpt>
      <trkpt lat="44.5924" lon="-0.18418">
        <ele>44.1</ele>
        <time>2021-10-16T12:33:17.000Z</time>
      </trkpt>
      <trkpt lat="44.59238" lon="-0.18405">
        <ele>43.6</ele>
        <time>2021-10-16T12:33:26.000Z</time>
      </trkpt>
      <trkpt lat="44.59233" lon="-0.18393">
        <ele>43.1</ele>
        <time>2021-10-16T12:33:35.000Z</time>
      </trkpt>
      <trkpt lat="44.5923" lon="-0.1838">
        <ele>42.8</ele>
        <time>2021-10-16T12:33:43.000Z</time>
      </trkpt>
      <trkpt lat="44.59225" lon="-0.1837">
        <ele>42.4</ele>
        <time>2021-10-16T12:33:50.000Z</time>
      </trkpt>
      <trkpt lat="44.59221" lon="-0.18356">
        <ele>41.8</ele>
        <time>2021-10-16T12:33:59.000Z</time>
      </trkpt>
      <trkpt lat="44.5922" lon="-0.18342">
        <ele>41.2</ele>
        <time>2021-10-16T12:34:07.000Z</time>
      </trkpt>
      <trkpt lat="44.59216" lon="-0.1833">
        <ele>40.9</ele>
        <time>2021-10-16T12:34:15.000Z</time>
      </trkpt>
      <trkpt lat="44.59209" lon="-0.1832">
        <ele>40.6</ele>
        <time>2021-10-16T12:34:23.000Z</time>
      </trkpt>
      <trkpt lat="44.592" lon="-0.18318">
        <ele>40.3</ele>
        <time>2021-10-16T12:34:32.000Z</time>
      </trkpt>
      <trkpt lat="44.59191" lon="-0.18323">
        <ele>40.3</ele>
        <time>2021-10-16T12:34:42.000Z</time>
      </trkpt>
      <trkpt lat="44.59183" lon="-0.18331">
        <ele>40.8</ele>
        <time>2021-10-16T12:34:53.000Z</time>
      </trkpt>
      <trkpt lat="44.59174" lon="-0.18335">
        <ele>41.3</ele>
        <time>2021-10-16T12:35:03.000Z</time>
      </trkpt>
      <trkpt lat="44.59165" lon="-0.1834">
        <ele>41.4</ele>
        <time>2021-10-16T12:35:11.000Z</time>
      </trkpt>
      <trkpt lat="44.59156" lon="-0.18344">
        <ele>41.9</ele>
        <time>2021-10-16T12:35:19.000Z</time>
      </trkpt>
      <trkpt lat="44.59146" lon="-0.18348">
        <ele>42.3</ele>
        <time>2021-10-16T12:35:27.000Z</time>
      </trkpt>
      <trkpt lat="44.59137" lon="-0.18351">
        <ele>42.5</ele>
        <time>2021-10-16T12:35:34.000Z</time>
      </trkpt>
      <trkpt lat="44.59128" lon="-0.18354">
        <ele>42.9</ele>
        <time>2021-10-16T12:35:42.000Z</time>
      </trkpt>
      <trkpt lat="44.59119" lon="-0.18358">
        <ele>43.2</ele>
        <time>2021-10-16T12:35:51.000Z</time>
      </trkpt>
      <trkpt lat="44.5911" lon="-0.18361">
        <ele>43.3</ele>
        <time>2021-10-16T12:35:59.000Z</time>
      </trkpt>
      <trkpt lat="44.59101" lon="-0.18365">
        <ele>43.7</ele>
        <time>2021-10-16T12:36:07.000Z</time>
      </trkpt>
      <trkpt lat="44.59092" lon="-0.1837">
        <ele>43.5</ele>
        <time>2021-10-16T12:36:15.000Z</time>
      </trkpt>
      <trkpt lat="44.59082" lon="-0.18375">
        <ele>43.4</ele>
        <time>2021-10-16T12:36:24.000Z</time>
      </trkpt>
      <trkpt lat="44.59072" lon="-0.18377">
        <ele>42.8</ele>
        <time>2021-10-16T12:36:33.000Z</time>
      </trkpt>
      <trkpt lat="44.59063" lon="-0.18382">
        <ele>42.4</ele>
        <time>2021-10-16T12:36:42.000Z</time>
      </trkpt>
      <trkpt lat="44.59054" lon="-0.18386">
        <ele>42.3</ele>
        <time>2021-10-16T12:36:51.000Z</time>
      </trkpt>
      <trkpt lat="44.59049" lon="-0.18397">
        <ele>42.2</ele>
        <time>2021-10-16T12:37:02.000Z</time>
      </trkpt>
      <trkpt lat="44.59049" lon="-0.1841">
        <ele>42.8</ele>
        <time>2021-10-16T12:37:11.000Z</time>
      </trkpt>
      <trkpt lat="44.59048" lon="-0.18423">
        <ele>43.9</ele>
        <time>2021-10-16T12:37:22.000Z</time>
      </trkpt>
      <trkpt lat="44.59048" lon="-0.18436">
        <ele>44.6</ele>
        <time>2021-10-16T12:37:31.000Z</time>
      </trkpt>
      <trkpt lat="44.59046" lon="-0.1845">
        <ele>45.6</ele>
        <time>2021-10-16T12:37:41.000Z</time>
      </trkpt>
      <trkpt lat="44.59046" lon="-0.18463">
        <ele>46.5</ele>
        <time>2021-10-16T12:37:50.000Z</time>
      </trkpt>
      <trkpt lat="44.59047" lon="-0.18478">
        <ele>47.7</ele>
        <time>2021-10-16T12:38:02.000Z</time>
      </trkpt>
      <trkpt lat="44.59049" lon="-0.18491">
        <ele>49.1</ele>
        <time>2021-10-16T12:38:14.000Z</time>
      </trkpt>
      <trkpt lat="44.59052" lon="-0.18503">
        <ele>50.7</ele>
        <time>2021-10-16T12:38:25.000Z</time>
      </trkpt>
      <trkpt lat="44.59055" lon="-0.18516">
        <ele>52.1</ele>
        <time>2021-10-16T12:38:36.000Z</time>
      </trkpt>
      <trkpt lat="44.59059" lon="-0.18528">
        <ele>53.8</ele>
        <time>2021-10-16T12:38:48.000Z</time>
      </trkpt>
      <trkpt lat="44.59061" lon="-0.1854">
        <ele>54.8</ele>
        <time>2021-10-16T12:38:57.000Z</time>
      </trkpt>
      <trkpt lat="44.59063" lon="-0.18553">
        <ele>56.2</ele>
        <time>2021-10-16T12:39:09.000Z</time>
      </trkpt>
      <trkpt lat="44.59065" lon="-0.18566">
        <ele>57.4</ele>
        <time>2021-10-16T12:39:19.000Z</time>
      </trkpt>
      <trkpt lat="44.59066" lon="-0.18579">
        <ele>58.4</ele>
        <time>2021-10-16T12:39:27.000Z</time>
      </trkpt>
      <trkpt lat="44.59068" lon="-0.18591">
        <ele>59.4</ele>
        <time>2021-10-16T12:39:37.000Z</time>
      </trkpt>
      <trkpt lat="44.5907" lon="-0.18605">
        <ele>60.3</ele>
        <time>2021-10-16T12:39:47.000Z</time>
      </trkpt>
      <trkpt lat="44.59071" lon="-0.18619">
        <ele>61.3</ele>
        <time>2021-10-16T12:39:57.000Z</time>
      </trkpt>
      <trkpt lat="44.59072" lon="-0.18632">
        <ele>62</ele>
        <time>2021-10-16T12:40:06.000Z</time>
      </trkpt>
      <trkpt lat="44.59073" lon="-0.18646">
        <ele>63.1</ele>
        <time>2021-10-16T12:40:16.000Z</time>
      </trkpt>
      <trkpt lat="44.59073" lon="-0.18659">
        <ele>63.9</ele>
        <time>2021-10-16T12:40:26.000Z</time>
      </trkpt>
      <trkpt lat="44.59074" lon="-0.18672">
        <ele>64.7</ele>
        <time>2021-10-16T12:40:35.000Z</time>
      </trkpt>
      <trkpt lat="44.59074" lon="-0.18686">
        <ele>65.2</ele>
        <time>2021-10-16T12:40:45.000Z</time>
      </trkpt>
      <trkpt lat="44.59073" lon="-0.187">
        <ele>65.9</ele>
        <time>2021-10-16T12:40:54.000Z</time>
      </trkpt>
      <trkpt lat="44.59074" lon="-0.18713">
        <ele>66.5</ele>
        <time>2021-10-16T12:41:04.000Z</time>
      </trkpt>
      <trkpt lat="44.59075" lon="-0.18727">
        <ele>67.2</ele>
        <time>2021-10-16T12:41:14.000Z</time>
      </trkpt>
      <trkpt lat="44.59074" lon="-0.1874">
        <ele>68.1</ele>
        <time>2021-10-16T12:41:23.000Z</time>
      </trkpt>
      <trkpt lat="44.59074" lon="-0.18753">
        <ele>68.6</ele>
        <time>2021-10-16T12:41:32.000Z</time>
      </trkpt>
      <trkpt lat="44.59075" lon="-0.18767">
        <ele>69.1</ele>
        <time>2021-10-16T12:41:41.000Z</time>
      </trkpt>
      <trkpt lat="44.59074" lon="-0.1878">
        <ele>69.8</ele>
        <time>2021-10-16T12:41:51.000Z</time>
      </trkpt>
      <trkpt lat="44.5907" lon="-0.18792">
        <ele>70.5</ele>
        <time>2021-10-16T12:42:02.000Z</time>
      </trkpt>
      <trkpt lat="44.59063" lon="-0.188">
        <ele>71.2</ele>
        <time>2021-10-16T12:42:11.000Z</time>
      </trkpt>
      <trkpt lat="44.59057" lon="-0.1881">
        <ele>71.8</ele>
        <time>2021-10-16T12:42:20.000Z</time>
      </trkpt>
      <trkpt lat="44.5905" lon="-0.18821">
        <ele>72.7</ele>
        <time>2021-10-16T12:42:29.000Z</time>
      </trkpt>
      <trkpt lat="44.59046" lon="-0.18833">
        <ele>73.5</ele>
        <time>2021-10-16T12:42:39.000Z</time>
      </trkpt>
      <trkpt lat="44.59043" lon="-0.18847">
        <ele>74.7</ele>
        <time>2021-10-16T12:42:49.000Z</time>
      </trkpt>
      <trkpt lat="44.59038" lon="-0.18861">
        <ele>75.6</ele>
        <time>2021-10-16T12:43:00.000Z</time>
      </trkpt>
      <trkpt lat="44.59034" lon="-0.18873">
        <ele>76.7</ele>
        <time>2021-10-16T12:43:10.000Z</time>
      </trkpt>
      <trkpt lat="44.5903" lon="-0.18885">
        <ele>77.2</ele>
        <time>2021-10-16T12:43:18.000Z</time>
      </trkpt>
      <trkpt lat="44.59027" lon="-0.18898">
        <ele>78.2</ele>
        <time>2021-10-16T12:43:27.000Z</time>
      </trkpt>
      <trkpt lat="44.59022" lon="-0.18909">
        <ele>79.1</ele>
        <time>2021-10-16T12:43:36.000Z</time>
      </trkpt>
      <trkpt lat="44.59017" lon="-0.18919">
        <ele>79.9</ele>
        <time>2021-10-16T12:43:45.000Z</time>
      </trkpt>
      <trkpt lat="44.59012" lon="-0.1893">
        <ele>81</ele>
        <time>2021-10-16T12:43:54.000Z</time>
      </trkpt>
      <trkpt lat="44.59008" lon="-0.18942">
        <ele>81.8</ele>
        <time>2021-10-16T12:44:03.000Z</time>
      </trkpt>
      <trkpt lat="44.59006" lon="-0.18955">
        <ele>82.8</ele>
        <time>2021-10-16T12:44:11.000Z</time>
      </trkpt>
      <trkpt lat="44.59005" lon="-0.18969">
        <ele>83.8</ele>
        <time>2021-10-16T12:44:21.000Z</time>
      </trkpt>
      <trkpt lat="44.59005" lon="-0.18982">
        <ele>84.9</ele>
        <time>2021-10-16T12:44:31.000Z</time>
      </trkpt>
      <trkpt lat="44.59004" lon="-0.18996">
        <ele>85.8</ele>
        <time>2021-10-16T12:44:45.000Z</time>
      </trkpt>
      <trkpt lat="44.59033" lon="-0.19352">
        <ele>90</ele>
        <time>2021-10-16T12:47:21.000Z</time>
      </trkpt>
      <trkpt lat="44.59033" lon="-0.1936">
        <ele>81.5</ele>
        <time>2021-10-16T12:49:42.831Z</time>
      </trkpt>
      <trkpt lat="44.59023" lon="-0.19377">
        <ele>83.2</ele>
        <time>2021-10-16T12:50:12.991Z</time>
      </trkpt>
      <trkpt lat="44.59017" lon="-0.19398">
        <ele>84.6</ele>
        <time>2021-10-16T12:50:44.484Z</time>
      </trkpt>
      <trkpt lat="44.5903" lon="-0.1952">
        <ele>85</ele>
        <time>2021-10-16T12:53:33.306Z</time>
      </trkpt>
      <trkpt lat="44.59058" lon="-0.19626">
        <ele>85</ele>
        <time>2021-10-16T12:56:08.354Z</time>
      </trkpt>
      <trkpt lat="44.59063" lon="-0.19721">
        <ele>87.9</ele>
        <time>2021-10-16T12:58:19.834Z</time>
      </trkpt>
      <trkpt lat="44.59064" lon="-0.19836">
        <ele>99</ele>
        <time>2021-10-16T13:00:59.460Z</time>
      </trkpt>
      <trkpt lat="44.5906" lon="-0.19906">
        <ele>107</ele>
        <time>2021-10-16T13:02:35.895Z</time>
      </trkpt>
      <trkpt lat="44.59059" lon="-0.19982">
        <ele>111.3</ele>
        <time>2021-10-16T13:04:20.742Z</time>
      </trkpt>
      <trkpt lat="44.5908" lon="-0.20032">
        <ele>113.6</ele>
        <time>2021-10-16T13:05:39.856Z</time>
      </trkpt>
      <trkpt lat="44.59044" lon="-0.20023">
        <ele>112</ele>
        <time>2021-10-16T13:06:49.562Z</time>
      </trkpt>
      <trkpt lat="44.58955" lon="-0.20003">
        <ele>94</ele>
        <time>2021-10-16T13:11:10.730Z</time>
      </trkpt>
      <trkpt lat="44.58956" lon="-0.20084">
        <ele>107.3</ele>
        <time>2021-10-16T13:14:47.997Z</time>
      </trkpt>
      <trkpt lat="44.58925" lon="-0.20092">
        <ele>105</ele>
        <time>2021-10-16T13:15:48.199Z</time>
      </trkpt>
      <trkpt lat="44.58921" lon="-0.20114">
        <ele>105.5</ele>
        <time>2021-10-16T13:16:19.716Z</time>
      </trkpt>
      <trkpt lat="44.58924" lon="-0.20172">
        <ele>107.7</ele>
        <time>2021-10-16T13:17:39.210Z</time>
      </trkpt>
      <trkpt lat="44.58909" lon="-0.20199">
        <ele>108.1</ele>
        <time>2021-10-16T13:18:25.912Z</time>
      </trkpt>
      <trkpt lat="44.58886" lon="-0.20179">
        <ele>105.5</ele>
        <time>2021-10-16T13:19:18.655Z</time>
      </trkpt>
      <trkpt lat="44.58791" lon="-0.20109">
        <ele>94.7</ele>
        <time>2021-10-16T13:22:45.982Z</time>
      </trkpt>
      <trkpt lat="44.58677" lon="-0.20011">
        <ele>85.4</ele>
        <time>2021-10-16T13:27:05.046Z</time>
      </trkpt>
      <trkpt lat="44.58677" lon="-0.20011">
        <ele>85.4</ele>
        <time>2021-10-16T13:27:06.000Z</time>
      </trkpt>
      <trkpt lat="44.58677" lon="-0.20011">
        <ele>85.4</ele>
        <time>2021-10-16T13:27:07.000Z</time>
      </trkpt>
      <trkpt lat="44.58668" lon="-0.20005">
        <ele>84.8</ele>
        <time>2021-10-16T13:27:16.000Z</time>
      </trkpt>
      <trkpt lat="44.58658" lon="-0.2">
        <ele>84.1</ele>
        <time>2021-10-16T13:27:25.000Z</time>
      </trkpt>
      <trkpt lat="44.58649" lon="-0.19995">
        <ele>83</ele>
        <time>2021-10-16T13:27:32.000Z</time>
      </trkpt>
      <trkpt lat="44.5864" lon="-0.19989">
        <ele>82</ele>
        <time>2021-10-16T13:27:40.000Z</time>
      </trkpt>
      <trkpt lat="44.58631" lon="-0.19984">
        <ele>81.1</ele>
        <time>2021-10-16T13:27:47.000Z</time>
      </trkpt>
      <trkpt lat="44.58623" lon="-0.19978">
        <ele>80.8</ele>
        <time>2021-10-16T13:27:55.000Z</time>
      </trkpt>
      <trkpt lat="44.58614" lon="-0.19971">
        <ele>80</ele>
        <time>2021-10-16T13:28:03.000Z</time>
      </trkpt>
      <trkpt lat="44.58605" lon="-0.19964">
        <ele>79.2</ele>
        <time>2021-10-16T13:28:11.000Z</time>
      </trkpt>
      <trkpt lat="44.58596" lon="-0.19961">
        <ele>78.7</ele>
        <time>2021-10-16T13:28:17.000Z</time>
      </trkpt>
      <trkpt lat="44.58586" lon="-0.19956">
        <ele>78.1</ele>
        <time>2021-10-16T13:28:25.000Z</time>
      </trkpt>
      <trkpt lat="44.58578" lon="-0.19949">
        <ele>77.5</ele>
        <time>2021-10-16T13:28:33.000Z</time>
      </trkpt>
      <trkpt lat="44.58569" lon="-0.19942">
        <ele>76.9</ele>
        <time>2021-10-16T13:28:40.000Z</time>
      </trkpt>
      <trkpt lat="44.58561" lon="-0.19935">
        <ele>76.4</ele>
        <time>2021-10-16T13:28:48.000Z</time>
      </trkpt>
      <trkpt lat="44.58552" lon="-0.19927">
        <ele>76</ele>
        <time>2021-10-16T13:28:56.000Z</time>
      </trkpt>
      <trkpt lat="44.58545" lon="-0.19918">
        <ele>75.5</ele>
        <time>2021-10-16T13:29:04.000Z</time>
      </trkpt>
      <trkpt lat="44.58538" lon="-0.1991">
        <ele>75</ele>
        <time>2021-10-16T13:29:12.000Z</time>
      </trkpt>
      <trkpt lat="44.5853" lon="-0.19901">
        <ele>74.7</ele>
        <time>2021-10-16T13:29:20.000Z</time>
      </trkpt>
      <trkpt lat="44.58524" lon="-0.1989">
        <ele>74.4</ele>
        <time>2021-10-16T13:29:29.000Z</time>
      </trkpt>
      <trkpt lat="44.58517" lon="-0.1988">
        <ele>73.9</ele>
        <time>2021-10-16T13:29:38.000Z</time>
      </trkpt>
      <trkpt lat="44.5851" lon="-0.19872">
        <ele>73.6</ele>
        <time>2021-10-16T13:29:45.000Z</time>
      </trkpt>
      <trkpt lat="44.58501" lon="-0.19866">
        <ele>73.1</ele>
        <time>2021-10-16T13:29:54.000Z</time>
      </trkpt>
      <trkpt lat="44.58493" lon="-0.19859">
        <ele>72.5</ele>
        <time>2021-10-16T13:30:01.000Z</time>
      </trkpt>
      <trkpt lat="44.58485" lon="-0.1985">
        <ele>71.9</ele>
        <time>2021-10-16T13:30:09.000Z</time>
      </trkpt>
      <trkpt lat="44.58477" lon="-0.19842">
        <ele>71.4</ele>
        <time>2021-10-16T13:30:17.000Z</time>
      </trkpt>
      <trkpt lat="44.5847" lon="-0.19834">
        <ele>71</ele>
        <time>2021-10-16T13:30:23.000Z</time>
      </trkpt>
      <trkpt lat="44.58463" lon="-0.19825">
        <ele>70.1</ele>
        <time>2021-10-16T13:30:32.000Z</time>
      </trkpt>
      <trkpt lat="44.58456" lon="-0.19816">
        <ele>69.3</ele>
        <time>2021-10-16T13:30:40.000Z</time>
      </trkpt>
      <trkpt lat="44.58449" lon="-0.19808">
        <ele>68.9</ele>
        <time>2021-10-16T13:30:46.000Z</time>
      </trkpt>
      <trkpt lat="44.5844" lon="-0.19799">
        <ele>68.4</ele>
        <time>2021-10-16T13:30:54.000Z</time>
      </trkpt>
      <trkpt lat="44.58432" lon="-0.19791">
        <ele>67.7</ele>
        <time>2021-10-16T13:31:02.000Z</time>
      </trkpt>
      <trkpt lat="44.58425" lon="-0.19782">
        <ele>67.2</ele>
        <time>2021-10-16T13:31:08.000Z</time>
      </trkpt>
      <trkpt lat="44.58416" lon="-0.19773">
        <ele>66.6</ele>
        <time>2021-10-16T13:31:17.000Z</time>
      </trkpt>
      <trkpt lat="44.58407" lon="-0.19768">
        <ele>66.3</ele>
        <time>2021-10-16T13:31:23.000Z</time>
      </trkpt>
      <trkpt lat="44.58397" lon="-0.19769">
        <ele>66.2</ele>
        <time>2021-10-16T13:31:30.000Z</time>
      </trkpt>
      <trkpt lat="44.58387" lon="-0.19773">
        <ele>66.4</ele>
        <time>2021-10-16T13:31:37.000Z</time>
      </trkpt>
      <trkpt lat="44.58379" lon="-0.1978">
        <ele>66.4</ele>
        <time>2021-10-16T13:31:44.000Z</time>
      </trkpt>
      <trkpt lat="44.58371" lon="-0.19788">
        <ele>66.7</ele>
        <time>2021-10-16T13:31:52.000Z</time>
      </trkpt>
      <trkpt lat="44.58364" lon="-0.19798">
        <ele>67.1</ele>
        <time>2021-10-16T13:32:00.000Z</time>
      </trkpt>
      <trkpt lat="44.58357" lon="-0.19807">
        <ele>67.3</ele>
        <time>2021-10-16T13:32:06.000Z</time>
      </trkpt>
      <trkpt lat="44.58349" lon="-0.19816">
        <ele>67.4</ele>
        <time>2021-10-16T13:32:14.000Z</time>
      </trkpt>
      <trkpt lat="44.5834" lon="-0.1982">
        <ele>67.8</ele>
        <time>2021-10-16T13:32:21.000Z</time>
      </trkpt>
      <trkpt lat="44.5833" lon="-0.19822">
        <ele>67.8</ele>
        <time>2021-10-16T13:32:29.000Z</time>
      </trkpt>
      <trkpt lat="44.58321" lon="-0.19821">
        <ele>67.1</ele>
        <time>2021-10-16T13:32:37.000Z</time>
      </trkpt>
      <trkpt lat="44.5831" lon="-0.19821">
        <ele>66.8</ele>
        <time>2021-10-16T13:32:43.000Z</time>
      </trkpt>
      <trkpt lat="44.583" lon="-0.19822">
        <ele>66.3</ele>
        <time>2021-10-16T13:32:52.000Z</time>
      </trkpt>
      <trkpt lat="44.5829" lon="-0.19824">
        <ele>65.9</ele>
        <time>2021-10-16T13:33:00.000Z</time>
      </trkpt>
      <trkpt lat="44.58281" lon="-0.19826">
        <ele>65.8</ele>
        <time>2021-10-16T13:33:07.000Z</time>
      </trkpt>
      <trkpt lat="44.58273" lon="-0.19834">
        <ele>65.4</ele>
        <time>2021-10-16T13:33:15.000Z</time>
      </trkpt>
      <trkpt lat="44.5827" lon="-0.19846">
        <ele>64.6</ele>
        <time>2021-10-16T13:33:22.000Z</time>
      </trkpt>
      <trkpt lat="44.58269" lon="-0.1986">
        <ele>63.9</ele>
        <time>2021-10-16T13:33:30.000Z</time>
      </trkpt>
      <trkpt lat="44.58268" lon="-0.19874">
        <ele>63.3</ele>
        <time>2021-10-16T13:33:40.000Z</time>
      </trkpt>
      <trkpt lat="44.58267" lon="-0.19888">
        <ele>62.6</ele>
        <time>2021-10-16T13:33:49.000Z</time>
      </trkpt>
      <trkpt lat="44.58265" lon="-0.19901">
        <ele>62</ele>
        <time>2021-10-16T13:33:58.000Z</time>
      </trkpt>
      <trkpt lat="44.58259" lon="-0.19912">
        <ele>61.2</ele>
        <time>2021-10-16T13:34:08.000Z</time>
      </trkpt>
      <trkpt lat="44.58253" lon="-0.19923">
        <ele>60.2</ele>
        <time>2021-10-16T13:34:17.000Z</time>
      </trkpt>
      <trkpt lat="44.58248" lon="-0.19934">
        <ele>59.4</ele>
        <time>2021-10-16T13:34:26.000Z</time>
      </trkpt>
      <trkpt lat="44.58243" lon="-0.19945">
        <ele>58.6</ele>
        <time>2021-10-16T13:34:35.000Z</time>
      </trkpt>
      <trkpt lat="44.58238" lon="-0.19957">
        <ele>57.9</ele>
        <time>2021-10-16T13:34:44.000Z</time>
      </trkpt>
      <trkpt lat="44.58235" lon="-0.1997">
        <ele>57.1</ele>
        <time>2021-10-16T13:34:53.000Z</time>
      </trkpt>
      <trkpt lat="44.58232" lon="-0.19983">
        <ele>56.3</ele>
        <time>2021-10-16T13:35:03.000Z</time>
      </trkpt>
      <trkpt lat="44.58231" lon="-0.19996">
        <ele>56</ele>
        <time>2021-10-16T13:35:12.000Z</time>
      </trkpt>
      <trkpt lat="44.5823" lon="-0.20009">
        <ele>55</ele>
        <time>2021-10-16T13:35:21.000Z</time>
      </trkpt>
      <trkpt lat="44.58234" lon="-0.20022">
        <ele>54.4</ele>
        <time>2021-10-16T13:35:38.000Z</time>
      </trkpt>
      <trkpt lat="44.58237" lon="-0.20035">
        <ele>53.8</ele>
        <time>2021-10-16T13:35:47.000Z</time>
      </trkpt>
      <trkpt lat="44.58239" lon="-0.20048">
        <ele>53.3</ele>
        <time>2021-10-16T13:35:56.000Z</time>
      </trkpt>
      <trkpt lat="44.5824" lon="-0.20061">
        <ele>52.7</ele>
        <time>2021-10-16T13:36:05.000Z</time>
      </trkpt>
      <trkpt lat="44.58243" lon="-0.20076">
        <ele>52.5</ele>
        <time>2021-10-16T13:36:13.000Z</time>
      </trkpt>
      <trkpt lat="44.58243" lon="-0.20088">
        <ele>52.2</ele>
        <time>2021-10-16T13:36:21.000Z</time>
      </trkpt>
      <trkpt lat="44.58241" lon="-0.20102">
        <ele>52</ele>
        <time>2021-10-16T13:36:30.000Z</time>
      </trkpt>
      <trkpt lat="44.58238" lon="-0.20114">
        <ele>52.2</ele>
        <time>2021-10-16T13:36:38.000Z</time>
      </trkpt>
      <trkpt lat="44.58231" lon="-0.20124">
        <ele>52.4</ele>
        <time>2021-10-16T13:36:46.000Z</time>
      </trkpt>
      <trkpt lat="44.58223" lon="-0.20129">
        <ele>52.4</ele>
        <time>2021-10-16T13:36:53.000Z</time>
      </trkpt>
      <trkpt lat="44.58215" lon="-0.20135">
        <ele>52.4</ele>
        <time>2021-10-16T13:37:01.000Z</time>
      </trkpt>
      <trkpt lat="44.58206" lon="-0.2014">
        <ele>52.3</ele>
        <time>2021-10-16T13:37:08.000Z</time>
      </trkpt>
      <trkpt lat="44.58197" lon="-0.20144">
        <ele>52.3</ele>
        <time>2021-10-16T13:37:15.000Z</time>
      </trkpt>
      <trkpt lat="44.58188" lon="-0.20147">
        <ele>52.2</ele>
        <time>2021-10-16T13:37:22.000Z</time>
      </trkpt>
      <trkpt lat="44.58179" lon="-0.20152">
        <ele>52.4</ele>
        <time>2021-10-16T13:37:30.000Z</time>
      </trkpt>
      <trkpt lat="44.58169" lon="-0.20156">
        <ele>52.2</ele>
        <time>2021-10-16T13:37:39.000Z</time>
      </trkpt>
      <trkpt lat="44.5816" lon="-0.20159">
        <ele>52.2</ele>
        <time>2021-10-16T13:37:47.000Z</time>
      </trkpt>
      <trkpt lat="44.5815" lon="-0.20161">
        <ele>52.1</ele>
        <time>2021-10-16T13:37:55.000Z</time>
      </trkpt>
      <trkpt lat="44.58148" lon="-0.20174">
        <ele>52.6</ele>
        <time>2021-10-16T13:40:46.000Z</time>
      </trkpt>
      <trkpt lat="44.58149" lon="-0.20187">
        <ele>53.5</ele>
        <time>2021-10-16T13:40:57.000Z</time>
      </trkpt>
      <trkpt lat="44.58151" lon="-0.20199">
        <ele>54</ele>
        <time>2021-10-16T13:41:06.000Z</time>
      </trkpt>
      <trkpt lat="44.58153" lon="-0.20212">
        <ele>54.6</ele>
        <time>2021-10-16T13:41:16.000Z</time>
      </trkpt>
      <trkpt lat="44.58155" lon="-0.20225">
        <ele>55.6</ele>
        <time>2021-10-16T13:41:27.000Z</time>
      </trkpt>
      <trkpt lat="44.58157" lon="-0.20238">
        <ele>56.2</ele>
        <time>2021-10-16T13:41:36.000Z</time>
      </trkpt>
      <trkpt lat="44.5816" lon="-0.2025">
        <ele>56.9</ele>
        <time>2021-10-16T13:41:45.000Z</time>
      </trkpt>
      <trkpt lat="44.58161" lon="-0.20263">
        <ele>57.8</ele>
        <time>2021-10-16T13:41:55.000Z</time>
      </trkpt>
      <trkpt lat="44.58164" lon="-0.20276">
        <ele>58.9</ele>
        <time>2021-10-16T13:42:04.000Z</time>
      </trkpt>
      <trkpt lat="44.58166" lon="-0.20288">
        <ele>59.7</ele>
        <time>2021-10-16T13:42:15.000Z</time>
      </trkpt>
      <trkpt lat="44.58168" lon="-0.20301">
        <ele>60.4</ele>
        <time>2021-10-16T13:42:25.000Z</time>
      </trkpt>
      <trkpt lat="44.5817" lon="-0.20314">
        <ele>61.3</ele>
        <time>2021-10-16T13:42:35.000Z</time>
      </trkpt>
      <trkpt lat="44.58171" lon="-0.20327">
        <ele>62.5</ele>
        <time>2021-10-16T13:42:45.000Z</time>
      </trkpt>
      <trkpt lat="44.58173" lon="-0.2034">
        <ele>63.6</ele>
        <time>2021-10-16T13:42:55.000Z</time>
      </trkpt>
      <trkpt lat="44.58175" lon="-0.20353">
        <ele>64.7</ele>
        <time>2021-10-16T13:43:05.000Z</time>
      </trkpt>
      <trkpt lat="44.58179" lon="-0.20365">
        <ele>65.5</ele>
        <time>2021-10-16T13:43:16.000Z</time>
      </trkpt>
      <trkpt lat="44.58181" lon="-0.20378">
        <ele>66.5</ele>
        <time>2021-10-16T13:43:28.000Z</time>
      </trkpt>
      <trkpt lat="44.58187" lon="-0.20388">
        <ele>67.4</ele>
        <time>2021-10-16T13:43:38.000Z</time>
      </trkpt>
      <trkpt lat="44.58195" lon="-0.20397">
        <ele>68.1</ele>
        <time>2021-10-16T13:43:53.000Z</time>
      </trkpt>
      <trkpt lat="44.58201" lon="-0.20406">
        <ele>68.6</ele>
        <time>2021-10-16T13:44:02.000Z</time>
      </trkpt>
      <trkpt lat="44.58206" lon="-0.20418">
        <ele>68.9</ele>
        <time>2021-10-16T13:44:12.000Z</time>
      </trkpt>
      <trkpt lat="44.5821" lon="-0.2043">
        <ele>69.4</ele>
        <time>2021-10-16T13:44:22.000Z</time>
      </trkpt>
      <trkpt lat="44.58215" lon="-0.20441">
        <ele>69.9</ele>
        <time>2021-10-16T13:44:31.000Z</time>
      </trkpt>
      <trkpt lat="44.58219" lon="-0.20454">
        <ele>70.4</ele>
        <time>2021-10-16T13:44:41.000Z</time>
      </trkpt>
      <trkpt lat="44.58224" lon="-0.20466">
        <ele>70.9</ele>
        <time>2021-10-16T13:44:51.000Z</time>
      </trkpt>
      <trkpt lat="44.58228" lon="-0.20477">
        <ele>71.5</ele>
        <time>2021-10-16T13:45:00.000Z</time>
      </trkpt>
      <trkpt lat="44.58233" lon="-0.20489">
        <ele>72.1</ele>
        <time>2021-10-16T13:45:10.000Z</time>
      </trkpt>
      <trkpt lat="44.58237" lon="-0.20501">
        <ele>72.9</ele>
        <time>2021-10-16T13:45:20.000Z</time>
      </trkpt>
      <trkpt lat="44.58243" lon="-0.20512">
        <ele>73.5</ele>
        <time>2021-10-16T13:45:30.000Z</time>
      </trkpt>
      <trkpt lat="44.58248" lon="-0.20523">
        <ele>74</ele>
        <time>2021-10-16T13:45:39.000Z</time>
      </trkpt>
      <trkpt lat="44.58254" lon="-0.20533">
        <ele>75</ele>
        <time>2021-10-16T13:45:50.000Z</time>
      </trkpt>
      <trkpt lat="44.58259" lon="-0.20546">
        <ele>75.9</ele>
        <time>2021-10-16T13:46:01.000Z</time>
      </trkpt>
      <trkpt lat="44.58263" lon="-0.20557">
        <ele>76.8</ele>
        <time>2021-10-16T13:46:12.000Z</time>
      </trkpt>
      <trkpt lat="44.58266" lon="-0.2057">
        <ele>77.8</ele>
        <time>2021-10-16T13:46:23.000Z</time>
      </trkpt>
      <trkpt lat="44.58268" lon="-0.20583">
        <ele>78.8</ele>
        <time>2021-10-16T13:46:34.000Z</time>
      </trkpt>
      <trkpt lat="44.58272" lon="-0.20596">
        <ele>80</ele>
        <time>2021-10-16T13:46:45.000Z</time>
      </trkpt>
      <trkpt lat="44.58275" lon="-0.20609">
        <ele>80.9</ele>
        <time>2021-10-16T13:46:56.000Z</time>
      </trkpt>
      <trkpt lat="44.58279" lon="-0.20621">
        <ele>81.8</ele>
        <time>2021-10-16T13:47:05.000Z</time>
      </trkpt>
      <trkpt lat="44.58282" lon="-0.20634">
        <ele>83.1</ele>
        <time>2021-10-16T13:47:15.000Z</time>
      </trkpt>
      <trkpt lat="44.58284" lon="-0.20647">
        <ele>84.6</ele>
        <time>2021-10-16T13:47:25.000Z</time>
      </trkpt>
      <trkpt lat="44.58286" lon="-0.2066">
        <ele>85.3</ele>
        <time>2021-10-16T13:47:35.000Z</time>
      </trkpt>
      <trkpt lat="44.58287" lon="-0.20674">
        <ele>86.6</ele>
        <time>2021-10-16T13:47:46.000Z</time>
      </trkpt>
      <trkpt lat="44.58288" lon="-0.20688">
        <ele>87.6</ele>
        <time>2021-10-16T13:47:56.000Z</time>
      </trkpt>
      <trkpt lat="44.58289" lon="-0.20701">
        <ele>88.7</ele>
        <time>2021-10-16T13:48:06.000Z</time>
      </trkpt>
      <trkpt lat="44.58291" lon="-0.20715">
        <ele>89.8</ele>
        <time>2021-10-16T13:48:16.000Z</time>
      </trkpt>
      <trkpt lat="44.58292" lon="-0.20727">
        <ele>91.1</ele>
        <time>2021-10-16T13:48:27.000Z</time>
      </trkpt>
      <trkpt lat="44.58293" lon="-0.20741">
        <ele>92.2</ele>
        <time>2021-10-16T13:48:37.000Z</time>
      </trkpt>
      <trkpt lat="44.58294" lon="-0.20754">
        <ele>93.3</ele>
        <time>2021-10-16T13:48:47.000Z</time>
      </trkpt>
      <trkpt lat="44.58295" lon="-0.20767">
        <ele>94.2</ele>
        <time>2021-10-16T13:48:56.000Z</time>
      </trkpt>
      <trkpt lat="44.58295" lon="-0.20781">
        <ele>95</ele>
        <time>2021-10-16T13:49:05.000Z</time>
      </trkpt>
      <trkpt lat="44.58295" lon="-0.20794">
        <ele>96.1</ele>
        <time>2021-10-16T13:49:14.000Z</time>
      </trkpt>
      <trkpt lat="44.58294" lon="-0.20808">
        <ele>96.5</ele>
        <time>2021-10-16T13:49:23.000Z</time>
      </trkpt>
      <trkpt lat="44.58292" lon="-0.20821">
        <ele>97.1</ele>
        <time>2021-10-16T13:49:32.000Z</time>
      </trkpt>
      <trkpt lat="44.5829" lon="-0.20834">
        <ele>97.5</ele>
        <time>2021-10-16T13:49:41.000Z</time>
      </trkpt>
      <trkpt lat="44.58288" lon="-0.20846">
        <ele>97.5</ele>
        <time>2021-10-16T13:49:50.000Z</time>
      </trkpt>
      <trkpt lat="44.58287" lon="-0.2086">
        <ele>97.6</ele>
        <time>2021-10-16T13:49:59.000Z</time>
      </trkpt>
      <trkpt lat="44.58287" lon="-0.20873">
        <ele>97.6</ele>
        <time>2021-10-16T13:50:07.000Z</time>
      </trkpt>
      <trkpt lat="44.58288" lon="-0.20886">
        <ele>97.6</ele>
        <time>2021-10-16T13:50:17.000Z</time>
      </trkpt>
      <trkpt lat="44.58293" lon="-0.20897">
        <ele>97.6</ele>
        <time>2021-10-16T13:50:27.000Z</time>
      </trkpt>
      <trkpt lat="44.58299" lon="-0.20908">
        <ele>97.8</ele>
        <time>2021-10-16T13:50:36.000Z</time>
      </trkpt>
      <trkpt lat="44.58305" lon="-0.20918">
        <ele>98.2</ele>
        <time>2021-10-16T13:50:45.000Z</time>
      </trkpt>
      <trkpt lat="44.58312" lon="-0.20928">
        <ele>98.6</ele>
        <time>2021-10-16T13:50:54.000Z</time>
      </trkpt>
      <trkpt lat="44.58319" lon="-0.20938">
        <ele>99.2</ele>
        <time>2021-10-16T13:51:03.000Z</time>
      </trkpt>
      <trkpt lat="44.58326" lon="-0.20947">
        <ele>99.7</ele>
        <time>2021-10-16T13:51:12.000Z</time>
      </trkpt>
      <trkpt lat="44.58335" lon="-0.20953">
        <ele>100.4</ele>
        <time>2021-10-16T13:51:22.000Z</time>
      </trkpt>
      <trkpt lat="44.58345" lon="-0.20954">
        <ele>100.9</ele>
        <time>2021-10-16T13:51:36.000Z</time>
      </trkpt>
      <trkpt lat="44.58354" lon="-0.20954">
        <ele>101.5</ele>
        <time>2021-10-16T13:51:47.000Z</time>
      </trkpt>
      <trkpt lat="44.58363" lon="-0.20953">
        <ele>102.5</ele>
        <time>2021-10-16T13:51:59.000Z</time>
      </trkpt>
      <trkpt lat="44.58373" lon="-0.20955">
        <ele>103.3</ele>
        <time>2021-10-16T13:52:11.000Z</time>
      </trkpt>
      <trkpt lat="44.58382" lon="-0.20954">
        <ele>104.6</ele>
        <time>2021-10-16T13:52:22.000Z</time>
      </trkpt>
      <trkpt lat="44.58392" lon="-0.20954">
        <ele>105.8</ele>
        <time>2021-10-16T13:52:33.000Z</time>
      </trkpt>
      <trkpt lat="44.58402" lon="-0.20955">
        <ele>106.5</ele>
        <time>2021-10-16T13:52:43.000Z</time>
      </trkpt>
      <trkpt lat="44.58411" lon="-0.20954">
        <ele>107.7</ele>
        <time>2021-10-16T13:52:54.000Z</time>
      </trkpt>
      <trkpt lat="44.5842" lon="-0.20957">
        <ele>108.9</ele>
        <time>2021-10-16T13:53:05.000Z</time>
      </trkpt>
      <trkpt lat="44.5843" lon="-0.20959">
        <ele>110.1</ele>
        <time>2021-10-16T13:53:15.000Z</time>
      </trkpt>
      <trkpt lat="44.58438" lon="-0.20962">
        <ele>110.7</ele>
        <time>2021-10-16T13:53:24.000Z</time>
      </trkpt>
      <trkpt lat="44.58447" lon="-0.20966">
        <ele>111.5</ele>
        <time>2021-10-16T13:53:33.000Z</time>
      </trkpt>
      <trkpt lat="44.58456" lon="-0.20972">
        <ele>112</ele>
        <time>2021-10-16T13:53:42.000Z</time>
      </trkpt>
      <trkpt lat="44.58464" lon="-0.20979">
        <ele>112.5</ele>
        <time>2021-10-16T13:53:51.000Z</time>
      </trkpt>
      <trkpt lat="44.58473" lon="-0.20985">
        <ele>112.8</ele>
        <time>2021-10-16T13:54:00.000Z</time>
      </trkpt>
      <trkpt lat="44.58482" lon="-0.2099">
        <ele>113.5</ele>
        <time>2021-10-16T13:54:09.000Z</time>
      </trkpt>
      <trkpt lat="44.58491" lon="-0.20993">
        <ele>113.7</ele>
        <time>2021-10-16T13:54:18.000Z</time>
      </trkpt>
      <trkpt lat="44.58501" lon="-0.20996">
        <ele>113.7</ele>
        <time>2021-10-16T13:54:27.000Z</time>
      </trkpt>
      <trkpt lat="44.58509" lon="-0.21002">
        <ele>113.4</ele>
        <time>2021-10-16T13:54:36.000Z</time>
      </trkpt>
      <trkpt lat="44.58516" lon="-0.2101">
        <ele>113.4</ele>
        <time>2021-10-16T13:54:46.000Z</time>
      </trkpt>
      <trkpt lat="44.58522" lon="-0.2102">
        <ele>113.7</ele>
        <time>2021-10-16T13:54:55.000Z</time>
      </trkpt>
      <trkpt lat="44.58526" lon="-0.21031">
        <ele>113.8</ele>
        <time>2021-10-16T13:55:04.000Z</time>
      </trkpt>
      <trkpt lat="44.5853" lon="-0.21045">
        <ele>114.1</ele>
        <time>2021-10-16T13:55:14.000Z</time>
      </trkpt>
      <trkpt lat="44.58532" lon="-0.21057">
        <ele>114.4</ele>
        <time>2021-10-16T13:55:23.000Z</time>
      </trkpt>
      <trkpt lat="44.58534" lon="-0.21071">
        <ele>114.8</ele>
        <time>2021-10-16T13:55:33.000Z</time>
      </trkpt>
      <trkpt lat="44.58535" lon="-0.21084">
        <ele>115.4</ele>
        <time>2021-10-16T13:55:43.000Z</time>
      </trkpt>
      <trkpt lat="44.58536" lon="-0.21098">
        <ele>116</ele>
        <time>2021-10-16T13:55:52.000Z</time>
      </trkpt>
      <trkpt lat="44.58537" lon="-0.21111">
        <ele>116.2</ele>
        <time>2021-10-16T13:56:01.000Z</time>
      </trkpt>
      <trkpt lat="44.58538" lon="-0.21125">
        <ele>116.2</ele>
        <time>2021-10-16T13:56:11.000Z</time>
      </trkpt>
      <trkpt lat="44.58539" lon="-0.21139">
        <ele>116.2</ele>
        <time>2021-10-16T13:56:21.000Z</time>
      </trkpt>
      <trkpt lat="44.5854" lon="-0.21152">
        <ele>115.9</ele>
        <time>2021-10-16T13:56:32.000Z</time>
      </trkpt>
      <trkpt lat="44.58539" lon="-0.21165">
        <ele>115.9</ele>
        <time>2021-10-16T13:56:42.000Z</time>
      </trkpt>
      <trkpt lat="44.58539" lon="-0.21179">
        <ele>115.6</ele>
        <time>2021-10-16T13:56:51.000Z</time>
      </trkpt>
      <trkpt lat="44.58541" lon="-0.21193">
        <ele>115.3</ele>
        <time>2021-10-16T13:57:01.000Z</time>
      </trkpt>
      <trkpt lat="44.58543" lon="-0.21206">
        <ele>114.9</ele>
        <time>2021-10-16T13:57:10.000Z</time>
      </trkpt>
      <trkpt lat="44.58546" lon="-0.21219">
        <ele>114.4</ele>
        <time>2021-10-16T13:57:20.000Z</time>
      </trkpt>
      <trkpt lat="44.58543" lon="-0.21226">
        <ele>114.2</ele>
        <time>2021-10-16T13:58:11.000Z</time>
      </trkpt>
    </trkseg>
  </trk>
</gpx>